<?xml version='1.0' encoding='UTF-8'?><gpx version="1.1" creator="JPX - https://github.com/jenetics/jpx" xmlns="http://www.topografix.com/GPX/1/1"><trk><trkseg><trkpt lat="45.5766702" lon="10.754283"><ele>210.0</ele><time>2026-03-28T11:21:50.024Z</time></trkpt><trkpt lat="45.5767418" lon="10.7542558"><ele>210.0</ele><time>2026-03-28T11:21:53.023Z</time></trkpt><trkpt lat="45.5768065" lon="10.754197"><ele>210.0</ele><time>2026-03-28T11:21:55.024Z</time></trkpt><trkpt lat="45.57688" lon="10.7541648"><ele>210.0</ele><time>2026-03-28T11:21:58.022Z</time></trkpt><trkpt lat="45.5769435" lon="10.7541812"><ele>210.0</ele><time>2026-03-28T11:22:02.02Z</time></trkpt><trkpt lat="45.5769975" lon="10.7543188"><ele>210.0</ele><time>2026-03-28T11:22:05.025Z</time></trkpt><trkpt lat="45.577037" lon="10.754461"><ele>209.4</ele><time>2026-03-28T11:22:07.022Z</time></trkpt><trkpt lat="45.5770722" lon="10.7546372"><ele>208.8</ele><time>2026-03-28T11:22:09.023Z</time></trkpt><trkpt lat="45.577092" lon="10.7547522"><ele>208.2</ele><time>2026-03-28T11:22:10.024Z</time></trkpt><trkpt lat="45.577113" lon="10.754888"><ele>207.6</ele><time>2026-03-28T11:22:11.023Z</time></trkpt><trkpt lat="45.5771363" lon="10.7550492"><ele>207.0</ele><time>2026-03-28T11:22:12.029Z</time></trkpt><trkpt lat="45.5771615" lon="10.7552335"><ele>206.75</ele><time>2026-03-28T11:22:13.022Z</time></trkpt><trkpt lat="45.5771848" lon="10.7554298"><ele>206.5</ele><time>2026-03-28T11:22:14.024Z</time></trkpt><trkpt lat="45.5771983" lon="10.7556192"><ele>206.25</ele><time>2026-03-28T11:22:15.026Z</time></trkpt><trkpt lat="45.5771983" lon="10.755794"><ele>206.0</ele><time>2026-03-28T11:22:16.023Z</time></trkpt><trkpt lat="45.5771817" lon="10.7559525"><ele>206.0</ele><time>2026-03-28T11:22:17.023Z</time></trkpt><trkpt lat="45.577155" lon="10.7560948"><ele>206.0</ele><time>2026-03-28T11:22:18.024Z</time></trkpt><trkpt lat="45.5771182" lon="10.756229"><ele>206.0</ele><time>2026-03-28T11:22:19.024Z</time></trkpt><trkpt lat="45.5770732" lon="10.7563457"><ele>206.0</ele><time>2026-03-28T11:22:20.025Z</time></trkpt><trkpt lat="45.5770238" lon="10.7564413"><ele>206.0</ele><time>2026-03-28T11:22:21.025Z</time></trkpt><trkpt lat="45.5769802" lon="10.7565248"><ele>206.0</ele><time>2026-03-28T11:22:22.024Z</time></trkpt><trkpt lat="45.5769552" lon="10.7566345"><ele>206.0</ele><time>2026-03-28T11:22:24.023Z</time></trkpt><trkpt lat="45.5769943" lon="10.7567233"><ele>206.0</ele><time>2026-03-28T11:22:34.023Z</time></trkpt><trkpt lat="45.5771298" lon="10.7567138"><ele>206.0</ele><time>2026-03-28T11:22:36.022Z</time></trkpt><trkpt lat="45.5772307" lon="10.756679"><ele>206.0</ele><time>2026-03-28T11:22:37.021Z</time></trkpt><trkpt lat="45.577349" lon="10.7566385"><ele>206.0</ele><time>2026-03-28T11:22:38.021Z</time></trkpt><trkpt lat="45.5774835" lon="10.756594"><ele>206.0</ele><time>2026-03-28T11:22:39.021Z</time></trkpt><trkpt lat="45.5776272" lon="10.7565475"><ele>206.0</ele><time>2026-03-28T11:22:40.022Z</time></trkpt><trkpt lat="45.5777777" lon="10.7564985"><ele>206.0</ele><time>2026-03-28T11:22:41.021Z</time></trkpt><trkpt lat="45.5779377" lon="10.756444"><ele>205.66666666666669</ele><time>2026-03-28T11:22:42.02Z</time></trkpt><trkpt lat="45.5781043" lon="10.7563882"><ele>205.33333333333331</ele><time>2026-03-28T11:22:43.021Z</time></trkpt><trkpt lat="45.5782755" lon="10.7563302"><ele>205.0</ele><time>2026-03-28T11:22:44.023Z</time></trkpt><trkpt lat="45.5784475" lon="10.7562655"><ele>205.0</ele><time>2026-03-28T11:22:45.022Z</time></trkpt><trkpt lat="45.5786192" lon="10.756188"><ele>205.0</ele><time>2026-03-28T11:22:46.024Z</time></trkpt><trkpt lat="45.5787883" lon="10.7561002"><ele>205.0</ele><time>2026-03-28T11:22:47.025Z</time></trkpt><trkpt lat="45.5789558" lon="10.7560007"><ele>206.0</ele><time>2026-03-28T11:22:48.023Z</time></trkpt><trkpt lat="45.5791207" lon="10.7558875"><ele>207.0</ele><time>2026-03-28T11:22:49.021Z</time></trkpt><trkpt lat="45.5792823" lon="10.7557648"><ele>208.0</ele><time>2026-03-28T11:22:50.02Z</time></trkpt><trkpt lat="45.5794315" lon="10.7556415"><ele>207.66666666666666</ele><time>2026-03-28T11:22:51.019Z</time></trkpt><trkpt lat="45.5795733" lon="10.7555183"><ele>207.33333333333331</ele><time>2026-03-28T11:22:52.018Z</time></trkpt><trkpt lat="45.5797118" lon="10.7553915"><ele>207.0</ele><time>2026-03-28T11:22:53.021Z</time></trkpt><trkpt lat="45.579848" lon="10.7552648"><ele>207.33333333333331</ele><time>2026-03-28T11:22:54.021Z</time></trkpt><trkpt lat="45.5799818" lon="10.755141"><ele>207.66666666666666</ele><time>2026-03-28T11:22:55.021Z</time></trkpt><trkpt lat="45.5801082" lon="10.7550223"><ele>208.0</ele><time>2026-03-28T11:22:56.024Z</time></trkpt><trkpt lat="45.5802312" lon="10.7549062"><ele>208.25</ele><time>2026-03-28T11:22:57.021Z</time></trkpt><trkpt lat="45.5803507" lon="10.7547892"><ele>208.5</ele><time>2026-03-28T11:22:58.022Z</time></trkpt><trkpt lat="45.5804642" lon="10.7546792"><ele>208.75</ele><time>2026-03-28T11:22:59.022Z</time></trkpt><trkpt lat="45.5805758" lon="10.754577"><ele>209.0</ele><time>2026-03-28T11:23:00.022Z</time></trkpt><trkpt lat="45.5806893" lon="10.754475"><ele>208.75</ele><time>2026-03-28T11:23:01.021Z</time></trkpt><trkpt lat="45.5808055" lon="10.75437"><ele>208.5</ele><time>2026-03-28T11:23:02.022Z</time></trkpt><trkpt lat="45.5809248" lon="10.7542618"><ele>208.25</ele><time>2026-03-28T11:23:03.022Z</time></trkpt><trkpt lat="45.5810468" lon="10.7541507"><ele>208.0</ele><time>2026-03-28T11:23:04.021Z</time></trkpt><trkpt lat="45.581171" lon="10.7540358"><ele>208.33333333333331</ele><time>2026-03-28T11:23:05.021Z</time></trkpt><trkpt lat="45.581296" lon="10.7539197"><ele>208.66666666666669</ele><time>2026-03-28T11:23:06.023Z</time></trkpt><trkpt lat="45.5814232" lon="10.7538028"><ele>209.0</ele><time>2026-03-28T11:23:07.02Z</time></trkpt><trkpt lat="45.5815515" lon="10.7536912"><ele>209.0</ele><time>2026-03-28T11:23:08.023Z</time></trkpt><trkpt lat="45.581676" lon="10.7535893"><ele>209.0</ele><time>2026-03-28T11:23:09.021Z</time></trkpt><trkpt lat="45.5817928" lon="10.7534922"><ele>209.0</ele><time>2026-03-28T11:23:10.02Z</time></trkpt><trkpt lat="45.5819063" lon="10.753394"><ele>209.0</ele><time>2026-03-28T11:23:11.021Z</time></trkpt><trkpt lat="45.5820157" lon="10.7532965"><ele>209.5</ele><time>2026-03-28T11:23:12.022Z</time></trkpt><trkpt lat="45.5821238" lon="10.7532012"><ele>210.0</ele><time>2026-03-28T11:23:13.021Z</time></trkpt><trkpt lat="45.5822298" lon="10.7531038"><ele>210.5</ele><time>2026-03-28T11:23:14.02Z</time></trkpt><trkpt lat="45.5823348" lon="10.7530047"><ele>211.0</ele><time>2026-03-28T11:23:15.019Z</time></trkpt><trkpt lat="45.5824402" lon="10.7529055"><ele>211.0</ele><time>2026-03-28T11:23:16.018Z</time></trkpt><trkpt lat="45.5825482" lon="10.7528048"><ele>211.0</ele><time>2026-03-28T11:23:17.019Z</time></trkpt><trkpt lat="45.5826667" lon="10.7526927"><ele>211.0</ele><time>2026-03-28T11:23:18.02Z</time></trkpt><trkpt lat="45.582795" lon="10.752572"><ele>211.0</ele><time>2026-03-28T11:23:19.02Z</time></trkpt><trkpt lat="45.5829325" lon="10.7524425"><ele>212.0</ele><time>2026-03-28T11:23:20.02Z</time></trkpt><trkpt lat="45.5830718" lon="10.7523103"><ele>213.0</ele><time>2026-03-28T11:23:21.023Z</time></trkpt><trkpt lat="45.5832083" lon="10.7521793"><ele>214.0</ele><time>2026-03-28T11:23:22.02Z</time></trkpt><trkpt lat="45.5833418" lon="10.7520505"><ele>214.0</ele><time>2026-03-28T11:23:23.024Z</time></trkpt><trkpt lat="45.583468" lon="10.7519225"><ele>214.0</ele><time>2026-03-28T11:23:24.021Z</time></trkpt><trkpt lat="45.5835857" lon="10.7518085"><ele>214.0</ele><time>2026-03-28T11:23:25.025Z</time></trkpt><trkpt lat="45.5836935" lon="10.7517133"><ele>214.0</ele><time>2026-03-28T11:23:26.022Z</time></trkpt><trkpt lat="45.583786" lon="10.7516333"><ele>215.0</ele><time>2026-03-28T11:23:27.023Z</time></trkpt><trkpt lat="45.5838602" lon="10.7515687"><ele>215.99999999999997</ele><time>2026-03-28T11:23:28.021Z</time></trkpt><trkpt lat="45.5839372" lon="10.7515002"><ele>216.99999999999997</ele><time>2026-03-28T11:23:30.021Z</time></trkpt><trkpt lat="45.584025" lon="10.7513962"><ele>218.0</ele><time>2026-03-28T11:23:59.022Z</time></trkpt><trkpt lat="45.5841058" lon="10.7512918"><ele>219.0</ele><time>2026-03-28T11:24:00.021Z</time></trkpt><trkpt lat="45.5842067" lon="10.7511598"><ele>219.33333333333331</ele><time>2026-03-28T11:24:01.022Z</time></trkpt><trkpt lat="45.5843215" lon="10.7510085"><ele>219.66666666666666</ele><time>2026-03-28T11:24:02.023Z</time></trkpt><trkpt lat="45.58444" lon="10.7508465"><ele>220.0</ele><time>2026-03-28T11:24:03.022Z</time></trkpt><trkpt lat="45.5845638" lon="10.7506735"><ele>220.0</ele><time>2026-03-28T11:24:04.019Z</time></trkpt><trkpt lat="45.5846825" lon="10.7505068"><ele>220.0</ele><time>2026-03-28T11:24:05.018Z</time></trkpt><trkpt lat="45.584793" lon="10.7503482"><ele>220.0</ele><time>2026-03-28T11:24:06.02Z</time></trkpt><trkpt lat="45.5848977" lon="10.7502008"><ele>220.0</ele><time>2026-03-28T11:24:07.02Z</time></trkpt><trkpt lat="45.5850002" lon="10.7500587"><ele>220.0</ele><time>2026-03-28T11:24:08.021Z</time></trkpt><trkpt lat="45.5851052" lon="10.7499135"><ele>220.0</ele><time>2026-03-28T11:24:09.025Z</time></trkpt><trkpt lat="45.5852117" lon="10.7497667"><ele>220.0</ele><time>2026-03-28T11:24:10.021Z</time></trkpt><trkpt lat="45.5853208" lon="10.7496213"><ele>220.25</ele><time>2026-03-28T11:24:11.023Z</time></trkpt><trkpt lat="45.585424" lon="10.7494872"><ele>220.5</ele><time>2026-03-28T11:24:12.021Z</time></trkpt><trkpt lat="45.5855128" lon="10.7493728"><ele>220.75</ele><time>2026-03-28T11:24:13.021Z</time></trkpt><trkpt lat="45.585579" lon="10.7492787"><ele>221.0</ele><time>2026-03-28T11:24:14.021Z</time></trkpt><trkpt lat="45.5856133" lon="10.749142"><ele>221.00000000000003</ele><time>2026-03-28T11:24:16.022Z</time></trkpt><trkpt lat="45.585582" lon="10.7490558"><ele>221.0</ele><time>2026-03-28T11:24:18.021Z</time></trkpt><trkpt lat="45.585517" lon="10.7490067"><ele>221.0</ele><time>2026-03-28T11:24:22.024Z</time></trkpt><trkpt lat="45.5854332" lon="10.748952"><ele>221.0</ele><time>2026-03-28T11:24:24.023Z</time></trkpt><trkpt lat="45.585371" lon="10.7489238"><ele>221.00000000000003</ele><time>2026-03-28T11:24:25.023Z</time></trkpt><trkpt lat="45.5852938" lon="10.7489128"><ele>221.0</ele><time>2026-03-28T11:24:26.022Z</time></trkpt><trkpt lat="45.5852055" lon="10.7489235"><ele>221.4</ele><time>2026-03-28T11:24:27.024Z</time></trkpt><trkpt lat="45.5851157" lon="10.748961"><ele>221.8</ele><time>2026-03-28T11:24:28.02Z</time></trkpt><trkpt lat="45.5850248" lon="10.7490257"><ele>222.20000000000002</ele><time>2026-03-28T11:24:29.02Z</time></trkpt><trkpt lat="45.5849345" lon="10.7491157"><ele>222.60000000000002</ele><time>2026-03-28T11:24:30.02Z</time></trkpt><trkpt lat="45.5848457" lon="10.7492245"><ele>223.0</ele><time>2026-03-28T11:24:31.019Z</time></trkpt><trkpt lat="45.5847643" lon="10.7493337"><ele>223.16666666666666</ele><time>2026-03-28T11:24:32.022Z</time></trkpt><trkpt lat="45.5846907" lon="10.7494323"><ele>223.33333333333331</ele><time>2026-03-28T11:24:33.023Z</time></trkpt><trkpt lat="45.5846177" lon="10.7495147"><ele>223.5</ele><time>2026-03-28T11:24:34.022Z</time></trkpt><trkpt lat="45.5845462" lon="10.7495655"><ele>223.66666666666669</ele><time>2026-03-28T11:24:35.023Z</time></trkpt><trkpt lat="45.5844735" lon="10.749588"><ele>223.83333333333334</ele><time>2026-03-28T11:24:36.025Z</time></trkpt><trkpt lat="45.5843867" lon="10.7495945"><ele>224.0</ele><time>2026-03-28T11:24:37.027Z</time></trkpt><trkpt lat="45.5842807" lon="10.7495955"><ele>224.0</ele><time>2026-03-28T11:24:38.023Z</time></trkpt><trkpt lat="45.5841543" lon="10.7495997"><ele>224.0</ele><time>2026-03-28T11:24:39.022Z</time></trkpt><trkpt lat="45.5840198" lon="10.7496062"><ele>224.0</ele><time>2026-03-28T11:24:40.023Z</time></trkpt><trkpt lat="45.5838692" lon="10.7496168"><ele>224.0</ele><time>2026-03-28T11:24:41.023Z</time></trkpt><trkpt lat="45.5837268" lon="10.7496297"><ele>224.6</ele><time>2026-03-28T11:24:42.024Z</time></trkpt><trkpt lat="45.5835975" lon="10.7496442"><ele>225.2</ele><time>2026-03-28T11:24:43.024Z</time></trkpt><trkpt lat="45.5834838" lon="10.7496648"><ele>225.79999999999998</ele><time>2026-03-28T11:24:44.023Z</time></trkpt><trkpt lat="45.5833827" lon="10.7496922"><ele>226.39999999999998</ele><time>2026-03-28T11:24:45.022Z</time></trkpt><trkpt lat="45.583288" lon="10.7497173"><ele>227.0</ele><time>2026-03-28T11:24:46.021Z</time></trkpt><trkpt lat="45.583187" lon="10.7497387"><ele>227.0</ele><time>2026-03-28T11:24:47.024Z</time></trkpt><trkpt lat="45.5830815" lon="10.7497488"><ele>227.0</ele><time>2026-03-28T11:24:48.022Z</time></trkpt><trkpt lat="45.5829645" lon="10.749744"><ele>227.0</ele><time>2026-03-28T11:24:49.022Z</time></trkpt><trkpt lat="45.582839" lon="10.7497218"><ele>227.0</ele><time>2026-03-28T11:24:50.024Z</time></trkpt><trkpt lat="45.5827062" lon="10.7496892"><ele>226.5</ele><time>2026-03-28T11:24:51.025Z</time></trkpt><trkpt lat="45.5825697" lon="10.7496545"><ele>226.0</ele><time>2026-03-28T11:24:52.022Z</time></trkpt><trkpt lat="45.5824315" lon="10.7496163"><ele>225.5</ele><time>2026-03-28T11:24:53.02Z</time></trkpt><trkpt lat="45.582296" lon="10.7495792"><ele>225.0</ele><time>2026-03-28T11:24:54.02Z</time></trkpt><trkpt lat="45.5821623" lon="10.749543"><ele>225.0</ele><time>2026-03-28T11:24:55.02Z</time></trkpt><trkpt lat="45.5820313" lon="10.7495072"><ele>225.0</ele><time>2026-03-28T11:24:56.021Z</time></trkpt><trkpt lat="45.5818975" lon="10.7494743"><ele>225.0</ele><time>2026-03-28T11:24:57.025Z</time></trkpt><trkpt lat="45.5817575" lon="10.7494508"><ele>225.0</ele><time>2026-03-28T11:24:58.022Z</time></trkpt><trkpt lat="45.5816085" lon="10.7494325"><ele>224.25</ele><time>2026-03-28T11:24:59.022Z</time></trkpt><trkpt lat="45.5814558" lon="10.7494127"><ele>223.5</ele><time>2026-03-28T11:25:00.022Z</time></trkpt><trkpt lat="45.5813108" lon="10.7493885"><ele>222.75</ele><time>2026-03-28T11:25:01.023Z</time></trkpt><trkpt lat="45.581173" lon="10.7493685"><ele>222.0</ele><time>2026-03-28T11:25:02.023Z</time></trkpt><trkpt lat="45.5810365" lon="10.7493682"><ele>222.25</ele><time>2026-03-28T11:25:03.021Z</time></trkpt><trkpt lat="45.5808985" lon="10.7493957"><ele>222.5</ele><time>2026-03-28T11:25:04.021Z</time></trkpt><trkpt lat="45.5807643" lon="10.7494505"><ele>222.75</ele><time>2026-03-28T11:25:05.023Z</time></trkpt><trkpt lat="45.5806418" lon="10.7495178"><ele>223.0</ele><time>2026-03-28T11:25:06.022Z</time></trkpt><trkpt lat="45.5805378" lon="10.7495812"><ele>222.99999999999997</ele><time>2026-03-28T11:25:07.024Z</time></trkpt><trkpt lat="45.5804485" lon="10.7496343"><ele>223.0</ele><time>2026-03-28T11:25:08.023Z</time></trkpt><trkpt lat="45.5803725" lon="10.7496763"><ele>223.0</ele><time>2026-03-28T11:25:09.022Z</time></trkpt><trkpt lat="45.5803088" lon="10.7497217"><ele>223.0</ele><time>2026-03-28T11:25:10.022Z</time></trkpt><trkpt lat="45.5802498" lon="10.7498142"><ele>222.99999999999997</ele><time>2026-03-28T11:25:12.021Z</time></trkpt><trkpt lat="45.5801778" lon="10.7499037"><ele>223.0</ele><time>2026-03-28T11:25:14.02Z</time></trkpt><trkpt lat="45.580099" lon="10.749955"><ele>223.75</ele><time>2026-03-28T11:25:15.022Z</time></trkpt><trkpt lat="45.5799983" lon="10.750021"><ele>224.5</ele><time>2026-03-28T11:25:16.023Z</time></trkpt><trkpt lat="45.5798912" lon="10.7500892"><ele>225.25</ele><time>2026-03-28T11:25:17.021Z</time></trkpt><trkpt lat="45.579777" lon="10.750159"><ele>226.0</ele><time>2026-03-28T11:25:18.02Z</time></trkpt><trkpt lat="45.5796618" lon="10.7502305"><ele>226.0</ele><time>2026-03-28T11:25:19.02Z</time></trkpt><trkpt lat="45.5795387" lon="10.7503112"><ele>226.0</ele><time>2026-03-28T11:25:20.019Z</time></trkpt><trkpt lat="45.5794128" lon="10.7503883"><ele>226.0</ele><time>2026-03-28T11:25:21.022Z</time></trkpt><trkpt lat="45.5792903" lon="10.7504697"><ele>226.0</ele><time>2026-03-28T11:25:22.022Z</time></trkpt><trkpt lat="45.5791715" lon="10.750553"><ele>226.60000000000002</ele><time>2026-03-28T11:25:23.023Z</time></trkpt><trkpt lat="45.5790585" lon="10.750632"><ele>227.20000000000002</ele><time>2026-03-28T11:25:24.023Z</time></trkpt><trkpt lat="45.5789522" lon="10.7507078"><ele>227.79999999999998</ele><time>2026-03-28T11:25:25.022Z</time></trkpt><trkpt lat="45.5788585" lon="10.7507742"><ele>228.39999999999998</ele><time>2026-03-28T11:25:26.022Z</time></trkpt><trkpt lat="45.5787763" lon="10.7508317"><ele>229.0</ele><time>2026-03-28T11:25:27.022Z</time></trkpt><trkpt lat="45.5787057" lon="10.7508848"><ele>229.49999999999997</ele><time>2026-03-28T11:25:28.023Z</time></trkpt><trkpt lat="45.5786453" lon="10.7509382"><ele>230.0</ele><time>2026-03-28T11:25:29.022Z</time></trkpt><trkpt lat="45.5785588" lon="10.7510363"><ele>230.5</ele><time>2026-03-28T11:25:31.025Z</time></trkpt><trkpt lat="45.5784757" lon="10.7510832"><ele>231.0</ele><time>2026-03-28T11:25:33.022Z</time></trkpt><trkpt lat="45.5784038" lon="10.7510795"><ele>231.49999999999997</ele><time>2026-03-28T11:25:35.022Z</time></trkpt><trkpt lat="45.5783338" lon="10.7510407"><ele>232.0</ele><time>2026-03-28T11:25:39.022Z</time></trkpt><trkpt lat="45.5783798" lon="10.7511607"><ele>230.83333333333331</ele><time>2026-03-28T11:25:46.021Z</time></trkpt><trkpt lat="45.5784105" lon="10.7512438"><ele>229.66666666666666</ele><time>2026-03-28T11:25:47.021Z</time></trkpt><trkpt lat="45.5784495" lon="10.7513382"><ele>228.5</ele><time>2026-03-28T11:25:48.025Z</time></trkpt><trkpt lat="45.5784807" lon="10.7514358"><ele>227.33333333333331</ele><time>2026-03-28T11:25:49.02Z</time></trkpt><trkpt lat="45.5785057" lon="10.7515502"><ele>226.16666666666666</ele><time>2026-03-28T11:25:50.02Z</time></trkpt><trkpt lat="45.5785238" lon="10.7516812"><ele>225.0</ele><time>2026-03-28T11:25:51.02Z</time></trkpt><trkpt lat="45.5785293" lon="10.751812"><ele>223.6</ele><time>2026-03-28T11:25:52.021Z</time></trkpt><trkpt lat="45.5785322" lon="10.7519425"><ele>222.2</ele><time>2026-03-28T11:25:53.022Z</time></trkpt><trkpt lat="45.578536" lon="10.7520557"><ele>220.8</ele><time>2026-03-28T11:25:54.024Z</time></trkpt><trkpt lat="45.5785388" lon="10.7521568"><ele>219.4</ele><time>2026-03-28T11:25:55.021Z</time></trkpt><trkpt lat="45.5785415" lon="10.7523125"><ele>218.0</ele><time>2026-03-28T11:25:57.021Z</time></trkpt><trkpt lat="45.5785283" lon="10.7524647"><ele>218.0</ele><time>2026-03-28T11:25:59.022Z</time></trkpt><trkpt lat="45.5785188" lon="10.7525878"><ele>218.0</ele><time>2026-03-28T11:26:00.024Z</time></trkpt><trkpt lat="45.5785055" lon="10.7527272"><ele>218.0</ele><time>2026-03-28T11:26:01.021Z</time></trkpt><trkpt lat="45.5784937" lon="10.752877"><ele>218.0</ele><time>2026-03-28T11:26:02.021Z</time></trkpt><trkpt lat="45.5784787" lon="10.7530262"><ele>218.0</ele><time>2026-03-28T11:26:03.022Z</time></trkpt><trkpt lat="45.578468" lon="10.7531708"><ele>217.0</ele><time>2026-03-28T11:26:04.022Z</time></trkpt><trkpt lat="45.578465" lon="10.7533058"><ele>216.0</ele><time>2026-03-28T11:26:05.022Z</time></trkpt><trkpt lat="45.5784703" lon="10.7534303"><ele>215.0</ele><time>2026-03-28T11:26:06.022Z</time></trkpt><trkpt lat="45.5784905" lon="10.7535608"><ele>214.0</ele><time>2026-03-28T11:26:07.019Z</time></trkpt><trkpt lat="45.5785247" lon="10.7537013"><ele>213.0</ele><time>2026-03-28T11:26:08.021Z</time></trkpt><trkpt lat="45.5785578" lon="10.753818"><ele>212.33333333333334</ele><time>2026-03-28T11:26:09.019Z</time></trkpt><trkpt lat="45.5785815" lon="10.7539095"><ele>211.66666666666669</ele><time>2026-03-28T11:26:10.022Z</time></trkpt><trkpt lat="45.5786103" lon="10.7540227"><ele>211.0</ele><time>2026-03-28T11:26:12.021Z</time></trkpt><trkpt lat="45.578561" lon="10.7540815"><ele>210.33333333333334</ele><time>2026-03-28T11:26:15.021Z</time></trkpt><trkpt lat="45.5784627" lon="10.754032"><ele>209.66666666666669</ele><time>2026-03-28T11:26:17.021Z</time></trkpt><trkpt lat="45.5783788" lon="10.7539858"><ele>209.0</ele><time>2026-03-28T11:26:18.021Z</time></trkpt><trkpt lat="45.5782825" lon="10.7539252"><ele>209.0</ele><time>2026-03-28T11:26:19.021Z</time></trkpt><trkpt lat="45.578161" lon="10.7538493"><ele>209.0</ele><time>2026-03-28T11:26:20.019Z</time></trkpt><trkpt lat="45.5780353" lon="10.7537582"><ele>209.0</ele><time>2026-03-28T11:26:21.021Z</time></trkpt><trkpt lat="45.5779198" lon="10.7536585"><ele>209.0</ele><time>2026-03-28T11:26:22.018Z</time></trkpt><trkpt lat="45.577805" lon="10.753544"><ele>209.25</ele><time>2026-03-28T11:26:23.02Z</time></trkpt><trkpt lat="45.5776937" lon="10.7534267"><ele>209.5</ele><time>2026-03-28T11:26:24.021Z</time></trkpt><trkpt lat="45.5775927" lon="10.7533142"><ele>209.75</ele><time>2026-03-28T11:26:25.022Z</time></trkpt><trkpt lat="45.5774977" lon="10.7531963"><ele>210.0</ele><time>2026-03-28T11:26:26.021Z</time></trkpt><trkpt lat="45.5774107" lon="10.7530672"><ele>210.0</ele><time>2026-03-28T11:26:27.02Z</time></trkpt><trkpt lat="45.5773307" lon="10.752924"><ele>210.0</ele><time>2026-03-28T11:26:28.025Z</time></trkpt><trkpt lat="45.5772567" lon="10.7527698"><ele>210.0</ele><time>2026-03-28T11:26:29.022Z</time></trkpt><trkpt lat="45.5771797" lon="10.7526037"><ele>210.0</ele><time>2026-03-28T11:26:30.023Z</time></trkpt><trkpt lat="45.5771072" lon="10.752443"><ele>210.0</ele><time>2026-03-28T11:26:31.019Z</time></trkpt><trkpt lat="45.5770337" lon="10.7522845"><ele>210.0</ele><time>2026-03-28T11:26:32.018Z</time></trkpt><trkpt lat="45.576959" lon="10.752127"><ele>210.0</ele><time>2026-03-28T11:26:33.018Z</time></trkpt><trkpt lat="45.576887" lon="10.7519847"><ele>210.0</ele><time>2026-03-28T11:26:34.017Z</time></trkpt><trkpt lat="45.5768238" lon="10.7518653"><ele>210.0</ele><time>2026-03-28T11:26:35.022Z</time></trkpt><trkpt lat="45.5767692" lon="10.7517698"><ele>210.0</ele><time>2026-03-28T11:26:36.019Z</time></trkpt><trkpt lat="45.5767223" lon="10.7516943"><ele>210.0</ele><time>2026-03-28T11:26:37.019Z</time></trkpt><trkpt lat="45.5766548" lon="10.7515947"><ele>210.0</ele><time>2026-03-28T11:26:39.022Z</time></trkpt><trkpt lat="45.5765973" lon="10.7514777"><ele>210.0</ele><time>2026-03-28T11:26:42.023Z</time></trkpt><trkpt lat="45.5765387" lon="10.7513835"><ele>210.0</ele><time>2026-03-28T11:26:44.023Z</time></trkpt><trkpt lat="45.5764905" lon="10.7513138"><ele>210.0</ele><time>2026-03-28T11:26:45.022Z</time></trkpt><trkpt lat="45.576441" lon="10.7512287"><ele>210.0</ele><time>2026-03-28T11:26:46.021Z</time></trkpt><trkpt lat="45.5763942" lon="10.7511418"><ele>210.0</ele><time>2026-03-28T11:26:47.021Z</time></trkpt><trkpt lat="45.576354" lon="10.7510627"><ele>210.0</ele><time>2026-03-28T11:26:48.023Z</time></trkpt><trkpt lat="45.5762992" lon="10.7509473"><ele>210.0</ele><time>2026-03-28T11:26:50.021Z</time></trkpt><trkpt lat="45.5762363" lon="10.7508433"><ele>210.0</ele><time>2026-03-28T11:26:52.02Z</time></trkpt><trkpt lat="45.5761817" lon="10.7507338"><ele>210.0</ele><time>2026-03-28T11:26:54.021Z</time></trkpt><trkpt lat="45.5761403" lon="10.75066"><ele>210.0</ele><time>2026-03-28T11:26:55.018Z</time></trkpt><trkpt lat="45.5760968" lon="10.750584"><ele>210.0</ele><time>2026-03-28T11:26:56.019Z</time></trkpt><trkpt lat="45.5760482" lon="10.7504992"><ele>210.0</ele><time>2026-03-28T11:26:57.017Z</time></trkpt><trkpt lat="45.575977" lon="10.7503962"><ele>210.0</ele><time>2026-03-28T11:26:58.018Z</time></trkpt><trkpt lat="45.5758852" lon="10.7502798"><ele>210.0</ele><time>2026-03-28T11:26:59.019Z</time></trkpt><trkpt lat="45.5757732" lon="10.7501592"><ele>210.0</ele><time>2026-03-28T11:27:00.019Z</time></trkpt><trkpt lat="45.575647" lon="10.750046"><ele>210.0</ele><time>2026-03-28T11:27:01.019Z</time></trkpt><trkpt lat="45.5755155" lon="10.749948"><ele>210.0</ele><time>2026-03-28T11:27:02.022Z</time></trkpt><trkpt lat="45.5753803" lon="10.7498478"><ele>209.0</ele><time>2026-03-28T11:27:03.021Z</time></trkpt><trkpt lat="45.5752437" lon="10.7497397"><ele>208.0</ele><time>2026-03-28T11:27:04.019Z</time></trkpt><trkpt lat="45.5751068" lon="10.7496228"><ele>207.0</ele><time>2026-03-28T11:27:05.023Z</time></trkpt><trkpt lat="45.5749687" lon="10.7495053"><ele>207.0</ele><time>2026-03-28T11:27:06.021Z</time></trkpt><trkpt lat="45.5748387" lon="10.7493953"><ele>207.0</ele><time>2026-03-28T11:27:07.022Z</time></trkpt><trkpt lat="45.5747125" lon="10.7492912"><ele>207.0</ele><time>2026-03-28T11:27:08.024Z</time></trkpt><trkpt lat="45.5745882" lon="10.7491952"><ele>207.0</ele><time>2026-03-28T11:27:09.024Z</time></trkpt><trkpt lat="45.574464" lon="10.7491115"><ele>206.75</ele><time>2026-03-28T11:27:10.021Z</time></trkpt><trkpt lat="45.5743457" lon="10.7490405"><ele>206.5</ele><time>2026-03-28T11:27:11.022Z</time></trkpt><trkpt lat="45.5742325" lon="10.7489695"><ele>206.25</ele><time>2026-03-28T11:27:12.024Z</time></trkpt><trkpt lat="45.5741205" lon="10.7488898"><ele>206.0</ele><time>2026-03-28T11:27:13.022Z</time></trkpt><trkpt lat="45.574009" lon="10.7487977"><ele>206.0</ele><time>2026-03-28T11:27:14.022Z</time></trkpt><trkpt lat="45.5738943" lon="10.7486913"><ele>206.0</ele><time>2026-03-28T11:27:15.021Z</time></trkpt><trkpt lat="45.57378" lon="10.7485748"><ele>206.0</ele><time>2026-03-28T11:27:16.022Z</time></trkpt><trkpt lat="45.5736742" lon="10.7484517"><ele>206.0</ele><time>2026-03-28T11:27:17.022Z</time></trkpt><trkpt lat="45.5735818" lon="10.7483353"><ele>206.20000000000002</ele><time>2026-03-28T11:27:18.023Z</time></trkpt><trkpt lat="45.5735045" lon="10.7482373"><ele>206.4</ele><time>2026-03-28T11:27:19.021Z</time></trkpt><trkpt lat="45.5734455" lon="10.7481603"><ele>206.6</ele><time>2026-03-28T11:27:20.02Z</time></trkpt><trkpt lat="45.5733642" lon="10.7480773"><ele>206.8</ele><time>2026-03-28T11:27:22.019Z</time></trkpt><trkpt lat="45.5732723" lon="10.7480992"><ele>207.0</ele><time>2026-03-28T11:27:24.024Z</time></trkpt><trkpt lat="45.5732063" lon="10.7481462"><ele>207.0</ele><time>2026-03-28T11:27:25.021Z</time></trkpt><trkpt lat="45.5731343" lon="10.7482045"><ele>207.0</ele><time>2026-03-28T11:27:26.024Z</time></trkpt><trkpt lat="45.5730602" lon="10.7482638"><ele>207.0</ele><time>2026-03-28T11:27:27.024Z</time></trkpt><trkpt lat="45.5729823" lon="10.7483238"><ele>207.0</ele><time>2026-03-28T11:27:28.022Z</time></trkpt><trkpt lat="45.5729003" lon="10.7483907"><ele>207.0</ele><time>2026-03-28T11:27:29.023Z</time></trkpt><trkpt lat="45.5728153" lon="10.7484645"><ele>207.16666666666666</ele><time>2026-03-28T11:27:30.021Z</time></trkpt><trkpt lat="45.5727352" lon="10.7485347"><ele>207.33333333333331</ele><time>2026-03-28T11:27:31.021Z</time></trkpt><trkpt lat="45.5726627" lon="10.7485978"><ele>207.5</ele><time>2026-03-28T11:27:32.023Z</time></trkpt><trkpt lat="45.5725968" lon="10.7486535"><ele>207.66666666666666</ele><time>2026-03-28T11:27:33.022Z</time></trkpt><trkpt lat="45.5725385" lon="10.7487018"><ele>207.83333333333331</ele><time>2026-03-28T11:27:34.02Z</time></trkpt><trkpt lat="45.5724407" lon="10.7487822"><ele>208.0</ele><time>2026-03-28T11:27:36.021Z</time></trkpt><trkpt lat="45.5723465" lon="10.7488573"><ele>208.0</ele><time>2026-03-28T11:27:38.022Z</time></trkpt><trkpt lat="45.5722528" lon="10.7489083"><ele>208.0</ele><time>2026-03-28T11:27:40.02Z</time></trkpt><trkpt lat="45.5721682" lon="10.7489162"><ele>208.0</ele><time>2026-03-28T11:27:42.022Z</time></trkpt><trkpt lat="45.572053" lon="10.7488782"><ele>208.0</ele><time>2026-03-28T11:27:44.02Z</time></trkpt><trkpt lat="45.5719798" lon="10.7488458"><ele>208.0</ele><time>2026-03-28T11:27:45.02Z</time></trkpt><trkpt lat="45.5718997" lon="10.74881"><ele>208.2</ele><time>2026-03-28T11:27:46.018Z</time></trkpt><trkpt lat="45.5718203" lon="10.7487747"><ele>208.4</ele><time>2026-03-28T11:27:47.018Z</time></trkpt><trkpt lat="45.5717458" lon="10.7487363"><ele>208.6</ele><time>2026-03-28T11:27:48.02Z</time></trkpt><trkpt lat="45.571671" lon="10.748691"><ele>208.79999999999998</ele><time>2026-03-28T11:27:49.019Z</time></trkpt><trkpt lat="45.5715835" lon="10.7486245"><ele>209.0</ele><time>2026-03-28T11:27:50.02Z</time></trkpt><trkpt lat="45.5714742" lon="10.7485367"><ele>209.0</ele><time>2026-03-28T11:27:51.022Z</time></trkpt><trkpt lat="45.5713597" lon="10.7484462"><ele>209.0</ele><time>2026-03-28T11:27:52.021Z</time></trkpt><trkpt lat="45.5712515" lon="10.7483625"><ele>209.0</ele><time>2026-03-28T11:27:53.021Z</time></trkpt><trkpt lat="45.5711505" lon="10.7482837"><ele>209.0</ele><time>2026-03-28T11:27:54.023Z</time></trkpt><trkpt lat="45.5710572" lon="10.7481993"><ele>208.66666666666669</ele><time>2026-03-28T11:27:55.021Z</time></trkpt><trkpt lat="45.5709653" lon="10.7481215"><ele>208.33333333333334</ele><time>2026-03-28T11:27:56.021Z</time></trkpt><trkpt lat="45.5708797" lon="10.7480705"><ele>208.0</ele><time>2026-03-28T11:27:57.02Z</time></trkpt><trkpt lat="45.5707997" lon="10.7480517"><ele>207.66666666666669</ele><time>2026-03-28T11:27:58.022Z</time></trkpt><trkpt lat="45.570729" lon="10.748069"><ele>207.33333333333334</ele><time>2026-03-28T11:27:59.021Z</time></trkpt><trkpt lat="45.5706555" lon="10.7481213"><ele>207.0</ele><time>2026-03-28T11:28:00.023Z</time></trkpt><trkpt lat="45.5705723" lon="10.7482117"><ele>207.0</ele><time>2026-03-28T11:28:01.02Z</time></trkpt><trkpt lat="45.570478" lon="10.7483335"><ele>207.0</ele><time>2026-03-28T11:28:02.02Z</time></trkpt><trkpt lat="45.5703782" lon="10.7484905"><ele>207.0</ele><time>2026-03-28T11:28:03.02Z</time></trkpt><trkpt lat="45.5702967" lon="10.7486473"><ele>207.0</ele><time>2026-03-28T11:28:04.019Z</time></trkpt><trkpt lat="45.5702372" lon="10.7488088"><ele>211.25</ele><time>2026-03-28T11:28:05.02Z</time></trkpt><trkpt lat="45.5701895" lon="10.7489918"><ele>215.5</ele><time>2026-03-28T11:28:06.02Z</time></trkpt><trkpt lat="45.5701668" lon="10.749188"><ele>219.75</ele><time>2026-03-28T11:28:07.019Z</time></trkpt><trkpt lat="45.5701517" lon="10.7493805"><ele>224.0</ele><time>2026-03-28T11:28:08.02Z</time></trkpt><trkpt lat="45.5701377" lon="10.7495357"><ele>224.50000000000003</ele><time>2026-03-28T11:28:09.02Z</time></trkpt><trkpt lat="45.5701155" lon="10.7496637"><ele>225.0</ele><time>2026-03-28T11:28:10.017Z</time></trkpt><trkpt lat="45.5700878" lon="10.7497825"><ele>225.5</ele><time>2026-03-28T11:28:11.016Z</time></trkpt><trkpt lat="45.570053" lon="10.7498892"><ele>226.0</ele><time>2026-03-28T11:28:12.018Z</time></trkpt><trkpt lat="45.5700188" lon="10.7499735"><ele>226.50000000000003</ele><time>2026-03-28T11:28:13.021Z</time></trkpt><trkpt lat="45.5699782" lon="10.7500548"><ele>227.0</ele><time>2026-03-28T11:28:14.021Z</time></trkpt><trkpt lat="45.5699333" lon="10.7501332"><ele>227.00000000000003</ele><time>2026-03-28T11:28:15.023Z</time></trkpt><trkpt lat="45.5698668" lon="10.750247"><ele>227.0</ele><time>2026-03-28T11:28:17.02Z</time></trkpt><trkpt lat="45.5698153" lon="10.7503"><ele>227.0</ele><time>2026-03-28T11:28:20.021Z</time></trkpt><trkpt lat="45.5697443" lon="10.7502117"><ele>227.0</ele><time>2026-03-28T11:28:23.022Z</time></trkpt><trkpt lat="45.5697177" lon="10.7501052"><ele>227.00000000000003</ele><time>2026-03-28T11:28:24.026Z</time></trkpt><trkpt lat="45.5696838" lon="10.7499675"><ele>227.0</ele><time>2026-03-28T11:28:25.023Z</time></trkpt><trkpt lat="45.5696472" lon="10.7498428"><ele>227.0</ele><time>2026-03-28T11:28:26.023Z</time></trkpt><trkpt lat="45.5696135" lon="10.7497335"><ele>227.0</ele><time>2026-03-28T11:28:27.023Z</time></trkpt><trkpt lat="45.5695853" lon="10.7496208"><ele>227.0</ele><time>2026-03-28T11:28:28.022Z</time></trkpt><trkpt lat="45.5695565" lon="10.749478"><ele>227.0</ele><time>2026-03-28T11:28:29.022Z</time></trkpt><trkpt lat="45.5695265" lon="10.7493052"><ele>227.0</ele><time>2026-03-28T11:28:30.022Z</time></trkpt><trkpt lat="45.5694993" lon="10.749128"><ele>226.8</ele><time>2026-03-28T11:28:31.021Z</time></trkpt><trkpt lat="45.5694773" lon="10.7489647"><ele>226.6</ele><time>2026-03-28T11:28:32.022Z</time></trkpt><trkpt lat="45.5694602" lon="10.748816"><ele>226.40000000000003</ele><time>2026-03-28T11:28:33.021Z</time></trkpt><trkpt lat="45.569446" lon="10.74868"><ele>226.20000000000002</ele><time>2026-03-28T11:28:34.022Z</time></trkpt><trkpt lat="45.5694345" lon="10.7485548"><ele>226.0</ele><time>2026-03-28T11:28:35.018Z</time></trkpt><trkpt lat="45.5694278" lon="10.7484417"><ele>225.8</ele><time>2026-03-28T11:28:36.02Z</time></trkpt><trkpt lat="45.5694142" lon="10.7483453"><ele>225.60000000000002</ele><time>2026-03-28T11:28:37.02Z</time></trkpt><trkpt lat="45.5693365" lon="10.7481948"><ele>225.4</ele><time>2026-03-28T11:28:39.023Z</time></trkpt><trkpt lat="45.5692678" lon="10.748119"><ele>225.2</ele><time>2026-03-28T11:28:40.023Z</time></trkpt><trkpt lat="45.5691825" lon="10.7480282"><ele>225.0</ele><time>2026-03-28T11:28:41.021Z</time></trkpt><trkpt lat="45.5690855" lon="10.7479188"><ele>225.0</ele><time>2026-03-28T11:28:42.023Z</time></trkpt><trkpt lat="45.5689878" lon="10.7478005"><ele>225.0</ele><time>2026-03-28T11:28:43.023Z</time></trkpt><trkpt lat="45.5689002" lon="10.747692"><ele>225.0</ele><time>2026-03-28T11:28:44.024Z</time></trkpt><trkpt lat="45.5688195" lon="10.7476005"><ele>225.0</ele><time>2026-03-28T11:28:45.024Z</time></trkpt><trkpt lat="45.5687457" lon="10.7475377"><ele>225.0</ele><time>2026-03-28T11:28:46.02Z</time></trkpt><trkpt lat="45.5686697" lon="10.7474953"><ele>226.2</ele><time>2026-03-28T11:28:47.022Z</time></trkpt><trkpt lat="45.5685838" lon="10.7474478"><ele>227.4</ele><time>2026-03-28T11:28:48.022Z</time></trkpt><trkpt lat="45.5684892" lon="10.747403"><ele>228.60000000000002</ele><time>2026-03-28T11:28:49.021Z</time></trkpt><trkpt lat="45.5683848" lon="10.7473593"><ele>229.8</ele><time>2026-03-28T11:28:50.02Z</time></trkpt><trkpt lat="45.5682732" lon="10.7473285"><ele>231.0</ele><time>2026-03-28T11:28:51.022Z</time></trkpt><trkpt lat="45.5681608" lon="10.7473108"><ele>231.0</ele><time>2026-03-28T11:28:52.021Z</time></trkpt><trkpt lat="45.5680533" lon="10.7473068"><ele>231.0</ele><time>2026-03-28T11:28:53.022Z</time></trkpt><trkpt lat="45.5679483" lon="10.747319"><ele>231.0</ele><time>2026-03-28T11:28:54.023Z</time></trkpt><trkpt lat="45.5678322" lon="10.7473368"><ele>231.0</ele><time>2026-03-28T11:28:55.022Z</time></trkpt><trkpt lat="45.5677042" lon="10.7473537"><ele>232.25</ele><time>2026-03-28T11:28:56.022Z</time></trkpt><trkpt lat="45.5675745" lon="10.7473693"><ele>233.5</ele><time>2026-03-28T11:28:57.021Z</time></trkpt><trkpt lat="45.5674515" lon="10.7473897"><ele>234.75</ele><time>2026-03-28T11:28:58.019Z</time></trkpt><trkpt lat="45.5673335" lon="10.7474122"><ele>236.0</ele><time>2026-03-28T11:28:59.019Z</time></trkpt><trkpt lat="45.5672242" lon="10.7474237"><ele>236.0</ele><time>2026-03-28T11:29:00.02Z</time></trkpt><trkpt lat="45.567132" lon="10.747418"><ele>236.00000000000003</ele><time>2026-03-28T11:29:01.019Z</time></trkpt><trkpt lat="45.5670472" lon="10.7474005"><ele>236.00000000000003</ele><time>2026-03-28T11:29:02.022Z</time></trkpt><trkpt lat="45.5669692" lon="10.7473805"><ele>236.0</ele><time>2026-03-28T11:29:03.023Z</time></trkpt><trkpt lat="45.566862" lon="10.7473892"><ele>236.0</ele><time>2026-03-28T11:29:05.021Z</time></trkpt><trkpt lat="45.566757" lon="10.7474458"><ele>238.4</ele><time>2026-03-28T11:29:07.022Z</time></trkpt><trkpt lat="45.566656" lon="10.7475198"><ele>240.8</ele><time>2026-03-28T11:29:09.025Z</time></trkpt><trkpt lat="45.5665702" lon="10.747589"><ele>243.20000000000002</ele><time>2026-03-28T11:29:11.021Z</time></trkpt><trkpt lat="45.5665042" lon="10.7476373"><ele>245.60000000000002</ele><time>2026-03-28T11:29:19.021Z</time></trkpt><trkpt lat="45.5664453" lon="10.7477133"><ele>248.0</ele><time>2026-03-28T11:29:21.021Z</time></trkpt><trkpt lat="45.566402" lon="10.7478622"><ele>249.00000000000003</ele><time>2026-03-28T11:29:23.018Z</time></trkpt><trkpt lat="45.5664052" lon="10.7479648"><ele>250.0</ele><time>2026-03-28T11:29:24.018Z</time></trkpt><trkpt lat="45.5664237" lon="10.7480832"><ele>251.0</ele><time>2026-03-28T11:29:25.016Z</time></trkpt><trkpt lat="45.5664513" lon="10.7482075"><ele>252.0</ele><time>2026-03-28T11:29:26.018Z</time></trkpt><trkpt lat="45.5664805" lon="10.7483223"><ele>253.00000000000003</ele><time>2026-03-28T11:29:27.022Z</time></trkpt><trkpt lat="45.566518" lon="10.7484393"><ele>254.0</ele><time>2026-03-28T11:29:28.019Z</time></trkpt><trkpt lat="45.5665513" lon="10.7485533"><ele>256.1666666666667</ele><time>2026-03-28T11:29:29.018Z</time></trkpt><trkpt lat="45.566595" lon="10.7486527"><ele>258.33333333333337</ele><time>2026-03-28T11:29:30.019Z</time></trkpt><trkpt lat="45.5666565" lon="10.7487573"><ele>260.5</ele><time>2026-03-28T11:29:31.02Z</time></trkpt><trkpt lat="45.5667092" lon="10.7488668"><ele>262.6666666666667</ele><time>2026-03-28T11:29:32.019Z</time></trkpt><trkpt lat="45.5667477" lon="10.7489762"><ele>264.8333333333333</ele><time>2026-03-28T11:29:33.02Z</time></trkpt><trkpt lat="45.5667703" lon="10.7490887"><ele>267.0</ele><time>2026-03-28T11:29:34.021Z</time></trkpt><trkpt lat="45.5667535" lon="10.7492422"><ele>268.0</ele><time>2026-03-28T11:29:36.021Z</time></trkpt><trkpt lat="45.5666675" lon="10.7494023"><ele>269.0</ele><time>2026-03-28T11:29:38.021Z</time></trkpt><trkpt lat="45.5666005" lon="10.7494855"><ele>270.0</ele><time>2026-03-28T11:29:39.022Z</time></trkpt><trkpt lat="45.5665188" lon="10.7495722"><ele>271.0</ele><time>2026-03-28T11:29:40.021Z</time></trkpt><trkpt lat="45.5664257" lon="10.7496668"><ele>272.0</ele><time>2026-03-28T11:29:41.02Z</time></trkpt><trkpt lat="45.5663282" lon="10.7497682"><ele>272.0</ele><time>2026-03-28T11:29:42.025Z</time></trkpt><trkpt lat="45.5662243" lon="10.7498748"><ele>272.0</ele><time>2026-03-28T11:29:43.021Z</time></trkpt><trkpt lat="45.5661182" lon="10.7499817"><ele>272.0</ele><time>2026-03-28T11:29:44.023Z</time></trkpt><trkpt lat="45.5660143" lon="10.7500887"><ele>272.0</ele><time>2026-03-28T11:29:45.022Z</time></trkpt><trkpt lat="45.5659193" lon="10.7501965"><ele>272.2</ele><time>2026-03-28T11:29:46.018Z</time></trkpt><trkpt lat="45.5658275" lon="10.7502968"><ele>272.4</ele><time>2026-03-28T11:29:47.019Z</time></trkpt><trkpt lat="45.56574" lon="10.7503892"><ele>272.6</ele><time>2026-03-28T11:29:48.019Z</time></trkpt><trkpt lat="45.5656665" lon="10.7504695"><ele>272.8</ele><time>2026-03-28T11:29:49.017Z</time></trkpt><trkpt lat="45.565604" lon="10.7505282"><ele>273.0</ele><time>2026-03-28T11:29:50.02Z</time></trkpt><trkpt lat="45.5655332" lon="10.750589"><ele>273.0</ele><time>2026-03-28T11:29:51.022Z</time></trkpt><trkpt lat="45.5654425" lon="10.750649"><ele>273.0</ele><time>2026-03-28T11:29:52.023Z</time></trkpt><trkpt lat="45.5653452" lon="10.7507032"><ele>273.0</ele><time>2026-03-28T11:29:53.023Z</time></trkpt><trkpt lat="45.5652377" lon="10.7507598"><ele>273.0</ele><time>2026-03-28T11:29:54.021Z</time></trkpt><trkpt lat="45.5651268" lon="10.7508235"><ele>273.0</ele><time>2026-03-28T11:29:55.02Z</time></trkpt><trkpt lat="45.5650288" lon="10.750898"><ele>273.4</ele><time>2026-03-28T11:29:56.022Z</time></trkpt><trkpt lat="45.5649523" lon="10.7509947"><ele>273.8</ele><time>2026-03-28T11:29:57.022Z</time></trkpt><trkpt lat="45.56489" lon="10.7511147"><ele>274.2</ele><time>2026-03-28T11:29:58.022Z</time></trkpt><trkpt lat="45.564828" lon="10.7512383"><ele>274.6</ele><time>2026-03-28T11:29:59.022Z</time></trkpt><trkpt lat="45.564752" lon="10.7513557"><ele>275.0</ele><time>2026-03-28T11:30:00.022Z</time></trkpt><trkpt lat="45.564655" lon="10.7514598"><ele>275.25</ele><time>2026-03-28T11:30:01.021Z</time></trkpt><trkpt lat="45.5645398" lon="10.7515557"><ele>275.5</ele><time>2026-03-28T11:30:02.021Z</time></trkpt><trkpt lat="45.564418" lon="10.7516438"><ele>275.75</ele><time>2026-03-28T11:30:03.021Z</time></trkpt><trkpt lat="45.5642953" lon="10.7517217"><ele>276.0</ele><time>2026-03-28T11:30:04.018Z</time></trkpt><trkpt lat="45.5641882" lon="10.7517927"><ele>274.8333333333333</ele><time>2026-03-28T11:30:05.019Z</time></trkpt><trkpt lat="45.5640975" lon="10.7518603"><ele>273.6666666666667</ele><time>2026-03-28T11:30:06.018Z</time></trkpt><trkpt lat="45.5640327" lon="10.7519353"><ele>272.5</ele><time>2026-03-28T11:30:07.021Z</time></trkpt><trkpt lat="45.5639883" lon="10.7520158"><ele>271.33333333333337</ele><time>2026-03-28T11:30:08.019Z</time></trkpt><trkpt lat="45.5639618" lon="10.7521347"><ele>270.1666666666667</ele><time>2026-03-28T11:30:09.022Z</time></trkpt><trkpt lat="45.5639632" lon="10.7522673"><ele>269.0</ele><time>2026-03-28T11:30:10.02Z</time></trkpt><trkpt lat="45.563979" lon="10.7524193"><ele>267.4</ele><time>2026-03-28T11:30:11.018Z</time></trkpt><trkpt lat="45.5640053" lon="10.7525752"><ele>265.79999999999995</ele><time>2026-03-28T11:30:12.017Z</time></trkpt><trkpt lat="45.5640288" lon="10.7527218"><ele>264.20000000000005</ele><time>2026-03-28T11:30:13.019Z</time></trkpt><trkpt lat="45.5640565" lon="10.7528355"><ele>262.6</ele><time>2026-03-28T11:30:14.017Z</time></trkpt><trkpt lat="45.5640748" lon="10.752926"><ele>261.0</ele><time>2026-03-28T11:30:15.021Z</time></trkpt><trkpt lat="45.5640133" lon="10.7530125"><ele>261.0</ele><time>2026-03-28T11:30:17.02Z</time></trkpt><trkpt lat="45.5639553" lon="10.7529182"><ele>261.0</ele><time>2026-03-28T11:30:19.019Z</time></trkpt><trkpt lat="45.5639373" lon="10.7528042"><ele>261.0</ele><time>2026-03-28T11:30:20.019Z</time></trkpt><trkpt lat="45.563927" lon="10.7526842"><ele>261.0</ele><time>2026-03-28T11:30:21.02Z</time></trkpt><trkpt lat="45.5639003" lon="10.7525822"><ele>261.0</ele><time>2026-03-28T11:30:22.019Z</time></trkpt><trkpt lat="45.5638185" lon="10.7525093"><ele>261.0</ele><time>2026-03-28T11:30:24.018Z</time></trkpt><trkpt lat="45.5637667" lon="10.7526475"><ele>260.1666666666667</ele><time>2026-03-28T11:30:26.022Z</time></trkpt><trkpt lat="45.56378" lon="10.7527463"><ele>259.3333333333333</ele><time>2026-03-28T11:30:27.02Z</time></trkpt><trkpt lat="45.5637838" lon="10.7528492"><ele>258.5</ele><time>2026-03-28T11:30:28.019Z</time></trkpt><trkpt lat="45.5637603" lon="10.7529488"><ele>257.66666666666663</ele><time>2026-03-28T11:30:29.019Z</time></trkpt><trkpt lat="45.5637202" lon="10.75304"><ele>256.8333333333333</ele><time>2026-03-28T11:30:30.02Z</time></trkpt><trkpt lat="45.5636903" lon="10.753159"><ele>256.0</ele><time>2026-03-28T11:30:31.019Z</time></trkpt><trkpt lat="45.5636712" lon="10.7532995"><ele>254.5</ele><time>2026-03-28T11:30:32.018Z</time></trkpt><trkpt lat="45.563662" lon="10.7534677"><ele>253.0</ele><time>2026-03-28T11:30:33.019Z</time></trkpt><trkpt lat="45.5636585" lon="10.7536437"><ele>251.5</ele><time>2026-03-28T11:30:34.016Z</time></trkpt><trkpt lat="45.563655" lon="10.7538143"><ele>250.0</ele><time>2026-03-28T11:30:35.02Z</time></trkpt><trkpt lat="45.5636523" lon="10.7539715"><ele>247.4</ele><time>2026-03-28T11:30:36.019Z</time></trkpt><trkpt lat="45.5636502" lon="10.7541122"><ele>244.8</ele><time>2026-03-28T11:30:37.018Z</time></trkpt><trkpt lat="45.5636483" lon="10.7542487"><ele>242.2</ele><time>2026-03-28T11:30:38.018Z</time></trkpt><trkpt lat="45.5636463" lon="10.754386"><ele>239.6</ele><time>2026-03-28T11:30:39.018Z</time></trkpt><trkpt lat="45.5636445" lon="10.7545208"><ele>237.0</ele><time>2026-03-28T11:30:40.021Z</time></trkpt><trkpt lat="45.5636415" lon="10.7546547"><ele>235.0</ele><time>2026-03-28T11:30:41.02Z</time></trkpt><trkpt lat="45.5636372" lon="10.7547803"><ele>233.0</ele><time>2026-03-28T11:30:42.022Z</time></trkpt><trkpt lat="45.563632" lon="10.754883"><ele>231.0</ele><time>2026-03-28T11:30:43.021Z</time></trkpt><trkpt lat="45.5636092" lon="10.7550118"><ele>229.0</ele><time>2026-03-28T11:30:45.021Z</time></trkpt><trkpt lat="45.563615" lon="10.7549128"><ele>227.0</ele><time>2026-03-28T11:30:51.02Z</time></trkpt><trkpt lat="45.5636153" lon="10.754821"><ele>225.0</ele><time>2026-03-28T11:30:52.018Z</time></trkpt><trkpt lat="45.5636157" lon="10.7546998"><ele>225.0</ele><time>2026-03-28T11:30:53.019Z</time></trkpt><trkpt lat="45.5636122" lon="10.7545668"><ele>225.0</ele><time>2026-03-28T11:30:54.018Z</time></trkpt><trkpt lat="45.5636088" lon="10.7544265"><ele>225.0</ele><time>2026-03-28T11:30:55.02Z</time></trkpt><trkpt lat="45.5636105" lon="10.7542795"><ele>225.0</ele><time>2026-03-28T11:30:56.02Z</time></trkpt><trkpt lat="45.5636097" lon="10.754116"><ele>225.0</ele><time>2026-03-28T11:30:57.023Z</time></trkpt><trkpt lat="45.5636063" lon="10.7539328"><ele>227.4</ele><time>2026-03-28T11:30:58.021Z</time></trkpt><trkpt lat="45.5636053" lon="10.7537492"><ele>229.8</ele><time>2026-03-28T11:30:59.021Z</time></trkpt><trkpt lat="45.5636068" lon="10.7535743"><ele>232.2</ele><time>2026-03-28T11:31:00.019Z</time></trkpt><trkpt lat="45.5636077" lon="10.7534265"><ele>234.6</ele><time>2026-03-28T11:31:01.02Z</time></trkpt><trkpt lat="45.5636102" lon="10.7533115"><ele>237.0</ele><time>2026-03-28T11:31:02.018Z</time></trkpt><trkpt lat="45.5635918" lon="10.75319"><ele>237.0</ele><time>2026-03-28T11:31:04.018Z</time></trkpt><trkpt lat="45.5635048" lon="10.7532605"><ele>237.0</ele><time>2026-03-28T11:31:07.019Z</time></trkpt><trkpt lat="45.5634635" lon="10.7533442"><ele>237.0</ele><time>2026-03-28T11:31:08.019Z</time></trkpt><trkpt lat="45.5634122" lon="10.7534367"><ele>237.0</ele><time>2026-03-28T11:31:09.018Z</time></trkpt><trkpt lat="45.563347" lon="10.7535088"><ele>237.0</ele><time>2026-03-28T11:31:10.02Z</time></trkpt><trkpt lat="45.563258" lon="10.7535827"><ele>237.0</ele><time>2026-03-28T11:31:11.019Z</time></trkpt><trkpt lat="45.563169" lon="10.7536335"><ele>237.0</ele><time>2026-03-28T11:31:12.021Z</time></trkpt><trkpt lat="45.563087" lon="10.7536685"><ele>237.0</ele><time>2026-03-28T11:31:13.02Z</time></trkpt><trkpt lat="45.563011" lon="10.7536825"><ele>237.0</ele><time>2026-03-28T11:31:14.02Z</time></trkpt><trkpt lat="45.5629305" lon="10.7536757"><ele>237.0</ele><time>2026-03-28T11:31:15.02Z</time></trkpt><trkpt lat="45.5628375" lon="10.7536537"><ele>237.0</ele><time>2026-03-28T11:31:16.021Z</time></trkpt><trkpt lat="45.56274" lon="10.75362"><ele>237.0</ele><time>2026-03-28T11:31:17.021Z</time></trkpt><trkpt lat="45.5626542" lon="10.7535905"><ele>236.2</ele><time>2026-03-28T11:31:18.035Z</time></trkpt><trkpt lat="45.5625722" lon="10.753571"><ele>235.39999999999998</ele><time>2026-03-28T11:31:19.02Z</time></trkpt><trkpt lat="45.5624835" lon="10.7535542"><ele>234.60000000000002</ele><time>2026-03-28T11:31:20.02Z</time></trkpt><trkpt lat="45.5623868" lon="10.7535482"><ele>233.8</ele><time>2026-03-28T11:31:21.019Z</time></trkpt><trkpt lat="45.562276" lon="10.753552"><ele>233.0</ele><time>2026-03-28T11:31:22.019Z</time></trkpt><trkpt lat="45.5621738" lon="10.7535643"><ele>233.0</ele><time>2026-03-28T11:31:23.021Z</time></trkpt><trkpt lat="45.5620757" lon="10.7535745"><ele>233.0</ele><time>2026-03-28T11:31:24.018Z</time></trkpt><trkpt lat="45.5619862" lon="10.7535705"><ele>233.0</ele><time>2026-03-28T11:31:25.019Z</time></trkpt><trkpt lat="45.5618983" lon="10.7535602"><ele>233.0</ele><time>2026-03-28T11:31:26.018Z</time></trkpt><trkpt lat="45.5618068" lon="10.7535338"><ele>233.0</ele><time>2026-03-28T11:31:27.019Z</time></trkpt><trkpt lat="45.561712" lon="10.7534902"><ele>235.8</ele><time>2026-03-28T11:31:28.02Z</time></trkpt><trkpt lat="45.5616337" lon="10.7534445"><ele>238.60000000000002</ele><time>2026-03-28T11:31:29.02Z</time></trkpt><trkpt lat="45.5615398" lon="10.7533725"><ele>241.39999999999998</ele><time>2026-03-28T11:31:31.021Z</time></trkpt><trkpt lat="45.561443" lon="10.7532747"><ele>244.2</ele><time>2026-03-28T11:31:33.02Z</time></trkpt><trkpt lat="45.5613587" lon="10.7532347"><ele>247.0</ele><time>2026-03-28T11:31:35.019Z</time></trkpt><trkpt lat="45.5612677" lon="10.7532033"><ele>244.8</ele><time>2026-03-28T11:31:37.018Z</time></trkpt><trkpt lat="45.5611657" lon="10.7531537"><ele>242.6</ele><time>2026-03-28T11:31:39.019Z</time></trkpt><trkpt lat="45.5610592" lon="10.7531248"><ele>240.40000000000003</ele><time>2026-03-28T11:31:41.019Z</time></trkpt><trkpt lat="45.5609493" lon="10.7531077"><ele>238.20000000000002</ele><time>2026-03-28T11:31:43.019Z</time></trkpt><trkpt lat="45.5608778" lon="10.753103"><ele>236.0</ele><time>2026-03-28T11:31:44.021Z</time></trkpt><trkpt lat="45.5608073" lon="10.753097"><ele>236.00000000000003</ele><time>2026-03-28T11:31:45.019Z</time></trkpt><trkpt lat="45.560743" lon="10.7530933"><ele>236.0</ele><time>2026-03-28T11:31:46.019Z</time></trkpt><trkpt lat="45.5606733" lon="10.7530795"><ele>236.0</ele><time>2026-03-28T11:31:47.019Z</time></trkpt><trkpt lat="45.560588" lon="10.753071"><ele>236.0</ele><time>2026-03-28T11:31:48.02Z</time></trkpt><trkpt lat="45.5604912" lon="10.7530422"><ele>236.00000000000003</ele><time>2026-03-28T11:31:49.019Z</time></trkpt><trkpt lat="45.560387" lon="10.7530115"><ele>236.0</ele><time>2026-03-28T11:31:50.019Z</time></trkpt><trkpt lat="45.560284" lon="10.7529637"><ele>234.75</ele><time>2026-03-28T11:31:51.019Z</time></trkpt><trkpt lat="45.5601667" lon="10.7529083"><ele>233.5</ele><time>2026-03-28T11:31:52.018Z</time></trkpt><trkpt lat="45.560049" lon="10.7528507"><ele>232.25</ele><time>2026-03-28T11:31:53.019Z</time></trkpt><trkpt lat="45.559942" lon="10.7527755"><ele>231.0</ele><time>2026-03-28T11:31:54.019Z</time></trkpt><trkpt lat="45.5598265" lon="10.7526928"><ele>232.0</ele><time>2026-03-28T11:31:55.018Z</time></trkpt><trkpt lat="45.559717" lon="10.7526118"><ele>233.0</ele><time>2026-03-28T11:31:56.019Z</time></trkpt><trkpt lat="45.5596203" lon="10.7525352"><ele>234.0</ele><time>2026-03-28T11:31:57.021Z</time></trkpt><trkpt lat="45.5595258" lon="10.7524438"><ele>235.0</ele><time>2026-03-28T11:31:58.021Z</time></trkpt><trkpt lat="45.5594333" lon="10.7523523"><ele>235.0</ele><time>2026-03-28T11:31:59.02Z</time></trkpt><trkpt lat="45.5593417" lon="10.7522643"><ele>235.0</ele><time>2026-03-28T11:32:00.021Z</time></trkpt><trkpt lat="45.5592603" lon="10.75219"><ele>235.0</ele><time>2026-03-28T11:32:01.018Z</time></trkpt><trkpt lat="45.5591837" lon="10.7521292"><ele>235.0</ele><time>2026-03-28T11:32:02.019Z</time></trkpt><trkpt lat="45.559117" lon="10.7520813"><ele>235.0</ele><time>2026-03-28T11:32:03.019Z</time></trkpt><trkpt lat="45.559016" lon="10.7520048"><ele>235.0</ele><time>2026-03-28T11:32:05.021Z</time></trkpt><trkpt lat="45.5589345" lon="10.7519272"><ele>235.0</ele><time>2026-03-28T11:32:07.019Z</time></trkpt><trkpt lat="45.5588267" lon="10.7518307"><ele>235.0</ele><time>2026-03-28T11:32:09.02Z</time></trkpt><trkpt lat="45.558758" lon="10.7517623"><ele>235.0</ele><time>2026-03-28T11:32:10.018Z</time></trkpt><trkpt lat="45.5586785" lon="10.7516812"><ele>235.0</ele><time>2026-03-28T11:32:11.019Z</time></trkpt><trkpt lat="45.5585748" lon="10.7516045"><ele>235.6</ele><time>2026-03-28T11:32:12.018Z</time></trkpt><trkpt lat="45.5584742" lon="10.7515477"><ele>236.2</ele><time>2026-03-28T11:32:13.017Z</time></trkpt><trkpt lat="45.5583802" lon="10.7515172"><ele>236.8</ele><time>2026-03-28T11:32:14.018Z</time></trkpt><trkpt lat="45.5582672" lon="10.7514703"><ele>237.4</ele><time>2026-03-28T11:32:15.017Z</time></trkpt><trkpt lat="45.558162" lon="10.7514428"><ele>238.0</ele><time>2026-03-28T11:32:16.017Z</time></trkpt><trkpt lat="45.5580625" lon="10.7514138"><ele>238.0</ele><time>2026-03-28T11:32:17.017Z</time></trkpt><trkpt lat="45.5579408" lon="10.7513805"><ele>238.0</ele><time>2026-03-28T11:32:18.021Z</time></trkpt><trkpt lat="45.5578222" lon="10.751364"><ele>238.0</ele><time>2026-03-28T11:32:19.018Z</time></trkpt><trkpt lat="45.5576927" lon="10.7513668"><ele>238.0</ele><time>2026-03-28T11:32:20.019Z</time></trkpt><trkpt lat="45.5575523" lon="10.7513785"><ele>236.0</ele><time>2026-03-28T11:32:21.022Z</time></trkpt><trkpt lat="45.5574058" lon="10.7513987"><ele>234.0</ele><time>2026-03-28T11:32:22.026Z</time></trkpt><trkpt lat="45.5572547" lon="10.751424"><ele>232.0</ele><time>2026-03-28T11:32:23.021Z</time></trkpt><trkpt lat="45.5571" lon="10.7514535"><ele>232.75</ele><time>2026-03-28T11:32:24.021Z</time></trkpt><trkpt lat="45.5569587" lon="10.7514747"><ele>233.5</ele><time>2026-03-28T11:32:25.023Z</time></trkpt><trkpt lat="45.5568288" lon="10.751497"><ele>234.25</ele><time>2026-03-28T11:32:26.021Z</time></trkpt><trkpt lat="45.5567165" lon="10.7515168"><ele>235.0</ele><time>2026-03-28T11:32:27.024Z</time></trkpt><trkpt lat="45.5566182" lon="10.7515347"><ele>234.99999999999997</ele><time>2026-03-28T11:32:28.022Z</time></trkpt><trkpt lat="45.5565427" lon="10.7515537"><ele>235.0</ele><time>2026-03-28T11:32:29.02Z</time></trkpt><trkpt lat="45.5564512" lon="10.7515903"><ele>235.0</ele><time>2026-03-28T11:32:31.024Z</time></trkpt><trkpt lat="45.556387" lon="10.7516085"><ele>235.0</ele><time>2026-03-28T11:32:34.018Z</time></trkpt><trkpt lat="45.5563132" lon="10.7516335"><ele>234.99999999999997</ele><time>2026-03-28T11:32:39.019Z</time></trkpt><trkpt lat="45.5562183" lon="10.7516925"><ele>235.0</ele><time>2026-03-28T11:32:41.021Z</time></trkpt><trkpt lat="45.5561473" lon="10.7517127"><ele>235.33333333333331</ele><time>2026-03-28T11:32:42.021Z</time></trkpt><trkpt lat="45.5560718" lon="10.7517297"><ele>235.66666666666666</ele><time>2026-03-28T11:32:43.02Z</time></trkpt><trkpt lat="45.5559962" lon="10.7517367"><ele>236.0</ele><time>2026-03-28T11:32:44.019Z</time></trkpt><trkpt lat="45.5559325" lon="10.751736"><ele>236.33333333333331</ele><time>2026-03-28T11:32:45.022Z</time></trkpt><trkpt lat="45.5558265" lon="10.751706"><ele>236.66666666666666</ele><time>2026-03-28T11:32:47.022Z</time></trkpt><trkpt lat="45.5557485" lon="10.7516542"><ele>237.0</ele><time>2026-03-28T11:32:49.021Z</time></trkpt><trkpt lat="45.5556723" lon="10.7515747"><ele>237.0</ele><time>2026-03-28T11:32:52.019Z</time></trkpt><trkpt lat="45.5556323" lon="10.751497"><ele>237.0</ele><time>2026-03-28T11:32:53.02Z</time></trkpt><trkpt lat="45.5555943" lon="10.7514118"><ele>237.0</ele><time>2026-03-28T11:32:54.021Z</time></trkpt><trkpt lat="45.5555497" lon="10.7513077"><ele>237.0</ele><time>2026-03-28T11:32:57.022Z</time></trkpt><trkpt lat="45.5554842" lon="10.7511255"><ele>237.0</ele><time>2026-03-28T11:32:59.021Z</time></trkpt><trkpt lat="45.555444" lon="10.7509833"><ele>236.8</ele><time>2026-03-28T11:33:00.023Z</time></trkpt><trkpt lat="45.5554063" lon="10.7508387"><ele>236.6</ele><time>2026-03-28T11:33:01.02Z</time></trkpt><trkpt lat="45.5553695" lon="10.7506972"><ele>236.40000000000003</ele><time>2026-03-28T11:33:02.019Z</time></trkpt><trkpt lat="45.555336" lon="10.750565"><ele>236.20000000000002</ele><time>2026-03-28T11:33:03.02Z</time></trkpt><trkpt lat="45.5553067" lon="10.7504472"><ele>236.0</ele><time>2026-03-28T11:33:04.024Z</time></trkpt><trkpt lat="45.555284" lon="10.7503523"><ele>236.00000000000003</ele><time>2026-03-28T11:33:05.019Z</time></trkpt><trkpt lat="45.555255" lon="10.7502413"><ele>236.0</ele><time>2026-03-28T11:33:07.021Z</time></trkpt><trkpt lat="45.5552318" lon="10.7503327"><ele>236.0</ele><time>2026-03-28T11:33:13.022Z</time></trkpt><trkpt lat="45.5552688" lon="10.7504493"><ele>236.0</ele><time>2026-03-28T11:33:15.023Z</time></trkpt><trkpt lat="45.5552952" lon="10.7505497"><ele>236.00000000000003</ele><time>2026-03-28T11:33:16.022Z</time></trkpt><trkpt lat="45.5553285" lon="10.750688"><ele>236.0</ele><time>2026-03-28T11:33:17.022Z</time></trkpt><trkpt lat="45.5553655" lon="10.7508483"><ele>236.20000000000002</ele><time>2026-03-28T11:33:18.022Z</time></trkpt><trkpt lat="45.5554032" lon="10.7510013"><ele>236.40000000000003</ele><time>2026-03-28T11:33:19.023Z</time></trkpt><trkpt lat="45.5554373" lon="10.7511318"><ele>236.6</ele><time>2026-03-28T11:33:20.024Z</time></trkpt><trkpt lat="45.5554662" lon="10.7512253"><ele>236.8</ele><time>2026-03-28T11:33:21.023Z</time></trkpt><trkpt lat="45.5555385" lon="10.751278"><ele>237.0</ele><time>2026-03-28T11:33:23.022Z</time></trkpt><trkpt lat="45.5556325" lon="10.7512122"><ele>237.0</ele><time>2026-03-28T11:33:25.02Z</time></trkpt><trkpt lat="45.5557073" lon="10.7511273"><ele>237.0</ele><time>2026-03-28T11:33:27.019Z</time></trkpt><trkpt lat="45.5557342" lon="10.750995"><ele>237.0</ele><time>2026-03-28T11:33:47.021Z</time></trkpt><trkpt lat="45.5557473" lon="10.750887"><ele>237.0</ele><time>2026-03-28T11:33:48.022Z</time></trkpt><trkpt lat="45.5557627" lon="10.7507433"><ele>237.0</ele><time>2026-03-28T11:33:49.021Z</time></trkpt><trkpt lat="45.5557812" lon="10.7505778"><ele>238.0</ele><time>2026-03-28T11:33:50.022Z</time></trkpt><trkpt lat="45.5558015" lon="10.7504073"><ele>239.0</ele><time>2026-03-28T11:33:51.022Z</time></trkpt><trkpt lat="45.5558228" lon="10.7502487"><ele>240.0</ele><time>2026-03-28T11:33:52.019Z</time></trkpt><trkpt lat="45.5558487" lon="10.7500935"><ele>241.0</ele><time>2026-03-28T11:33:53.019Z</time></trkpt><trkpt lat="45.5558792" lon="10.7499515"><ele>241.0</ele><time>2026-03-28T11:33:54.018Z</time></trkpt><trkpt lat="45.5559167" lon="10.7498195"><ele>241.00000000000003</ele><time>2026-03-28T11:33:55.018Z</time></trkpt><trkpt lat="45.5559583" lon="10.7496953"><ele>241.00000000000003</ele><time>2026-03-28T11:33:56.02Z</time></trkpt><trkpt lat="45.5560038" lon="10.7495777"><ele>241.0</ele><time>2026-03-28T11:33:57.021Z</time></trkpt><trkpt lat="45.5560498" lon="10.7494638"><ele>241.0</ele><time>2026-03-28T11:33:58.019Z</time></trkpt><trkpt lat="45.5560933" lon="10.7493562"><ele>240.49999999999997</ele><time>2026-03-28T11:33:59.02Z</time></trkpt><trkpt lat="45.556135" lon="10.7492535"><ele>240.0</ele><time>2026-03-28T11:34:00.019Z</time></trkpt><trkpt lat="45.556174" lon="10.7491505"><ele>239.5</ele><time>2026-03-28T11:34:01.028Z</time></trkpt><trkpt lat="45.556212" lon="10.7490457"><ele>239.0</ele><time>2026-03-28T11:34:02.023Z</time></trkpt><trkpt lat="45.5562478" lon="10.7489362"><ele>238.49999999999997</ele><time>2026-03-28T11:34:03.022Z</time></trkpt><trkpt lat="45.5562832" lon="10.7488192"><ele>238.0</ele><time>2026-03-28T11:34:04.022Z</time></trkpt><trkpt lat="45.5563182" lon="10.7487027"><ele>240.4</ele><time>2026-03-28T11:34:05.021Z</time></trkpt><trkpt lat="45.5563527" lon="10.7485888"><ele>242.8</ele><time>2026-03-28T11:34:06.021Z</time></trkpt><trkpt lat="45.5563885" lon="10.7484728"><ele>245.2</ele><time>2026-03-28T11:34:07.021Z</time></trkpt><trkpt lat="45.5564193" lon="10.7483522"><ele>247.6</ele><time>2026-03-28T11:34:08.019Z</time></trkpt><trkpt lat="45.5564503" lon="10.74822"><ele>250.0</ele><time>2026-03-28T11:34:09.021Z</time></trkpt><trkpt lat="45.5564832" lon="10.7480832"><ele>250.0</ele><time>2026-03-28T11:34:10.021Z</time></trkpt><trkpt lat="45.5565165" lon="10.7479538"><ele>250.0</ele><time>2026-03-28T11:34:11.021Z</time></trkpt><trkpt lat="45.5565535" lon="10.7478332"><ele>250.0</ele><time>2026-03-28T11:34:12.021Z</time></trkpt><trkpt lat="45.5565968" lon="10.7477198"><ele>250.0</ele><time>2026-03-28T11:34:13.021Z</time></trkpt><trkpt lat="45.5566465" lon="10.7476123"><ele>250.0</ele><time>2026-03-28T11:34:14.02Z</time></trkpt><trkpt lat="45.5567012" lon="10.7475073"><ele>248.83333333333331</ele><time>2026-03-28T11:34:15.022Z</time></trkpt><trkpt lat="45.5567577" lon="10.7474042"><ele>247.66666666666666</ele><time>2026-03-28T11:34:16.019Z</time></trkpt><trkpt lat="45.5568093" lon="10.7473112"><ele>246.5</ele><time>2026-03-28T11:34:17.018Z</time></trkpt><trkpt lat="45.5568478" lon="10.7472283"><ele>245.33333333333331</ele><time>2026-03-28T11:34:18.018Z</time></trkpt><trkpt lat="45.5569282" lon="10.7471055"><ele>244.16666666666666</ele><time>2026-03-28T11:34:20.02Z</time></trkpt><trkpt lat="45.5569912" lon="10.74707"><ele>243.0</ele><time>2026-03-28T11:34:21.02Z</time></trkpt><trkpt lat="45.5570633" lon="10.7470413"><ele>244.33333333333334</ele><time>2026-03-28T11:34:22.02Z</time></trkpt><trkpt lat="45.5571277" lon="10.7469945"><ele>245.66666666666669</ele><time>2026-03-28T11:34:23.021Z</time></trkpt><trkpt lat="45.5571927" lon="10.7469247"><ele>247.0</ele><time>2026-03-28T11:34:24.02Z</time></trkpt><trkpt lat="45.5572562" lon="10.7468387"><ele>248.33333333333334</ele><time>2026-03-28T11:34:25.021Z</time></trkpt><trkpt lat="45.5573237" lon="10.7467392"><ele>249.66666666666669</ele><time>2026-03-28T11:34:26.019Z</time></trkpt><trkpt lat="45.5573965" lon="10.7466188"><ele>251.0</ele><time>2026-03-28T11:34:27.02Z</time></trkpt><trkpt lat="45.55746" lon="10.7465107"><ele>251.00000000000003</ele><time>2026-03-28T11:34:28.02Z</time></trkpt><trkpt lat="45.5575075" lon="10.7464135"><ele>251.0</ele><time>2026-03-28T11:34:29.019Z</time></trkpt><trkpt lat="45.5575492" lon="10.7463247"><ele>251.0</ele><time>2026-03-28T11:34:30.021Z</time></trkpt><trkpt lat="45.5575832" lon="10.7462443"><ele>251.0</ele><time>2026-03-28T11:34:31.021Z</time></trkpt><trkpt lat="45.5576443" lon="10.7461185"><ele>251.00000000000003</ele><time>2026-03-28T11:34:33.02Z</time></trkpt><trkpt lat="45.5577153" lon="10.7460072"><ele>251.0</ele><time>2026-03-28T11:34:35.02Z</time></trkpt><trkpt lat="45.5578025" lon="10.7459173"><ele>251.83333333333334</ele><time>2026-03-28T11:34:37.021Z</time></trkpt><trkpt lat="45.5579087" lon="10.7458217"><ele>252.66666666666669</ele><time>2026-03-28T11:34:39.021Z</time></trkpt><trkpt lat="45.5579695" lon="10.7457642"><ele>253.5</ele><time>2026-03-28T11:34:40.02Z</time></trkpt><trkpt lat="45.558031" lon="10.7457047"><ele>254.33333333333331</ele><time>2026-03-28T11:34:41.019Z</time></trkpt><trkpt lat="45.558094" lon="10.745649"><ele>255.16666666666666</ele><time>2026-03-28T11:34:42.018Z</time></trkpt><trkpt lat="45.5581673" lon="10.7456023"><ele>256.0</ele><time>2026-03-28T11:34:43.018Z</time></trkpt><trkpt lat="45.5582488" lon="10.7455647"><ele>255.99999999999997</ele><time>2026-03-28T11:34:44.02Z</time></trkpt><trkpt lat="45.5583273" lon="10.7455353"><ele>256.0</ele><time>2026-03-28T11:34:45.02Z</time></trkpt><trkpt lat="45.5584052" lon="10.7455075"><ele>256.0</ele><time>2026-03-28T11:34:46.021Z</time></trkpt><trkpt lat="45.5584793" lon="10.7454782"><ele>256.0</ele><time>2026-03-28T11:34:47.022Z</time></trkpt><trkpt lat="45.558547" lon="10.7454525"><ele>255.99999999999997</ele><time>2026-03-28T11:34:48.024Z</time></trkpt><trkpt lat="45.5586117" lon="10.7454357"><ele>256.0</ele><time>2026-03-28T11:34:49.023Z</time></trkpt><trkpt lat="45.5587343" lon="10.7454073"><ele>255.49999999999997</ele><time>2026-03-28T11:34:51.022Z</time></trkpt><trkpt lat="45.5587985" lon="10.7453915"><ele>255.0</ele><time>2026-03-28T11:34:52.023Z</time></trkpt><trkpt lat="45.5588643" lon="10.7453702"><ele>254.5</ele><time>2026-03-28T11:34:53.022Z</time></trkpt><trkpt lat="45.558939" lon="10.7453353"><ele>254.0</ele><time>2026-03-28T11:34:54.021Z</time></trkpt><trkpt lat="45.5590305" lon="10.7452857"><ele>253.49999999999997</ele><time>2026-03-28T11:34:55.021Z</time></trkpt><trkpt lat="45.5591457" lon="10.7452157"><ele>253.0</ele><time>2026-03-28T11:34:56.022Z</time></trkpt><trkpt lat="45.559262" lon="10.745134"><ele>253.0</ele><time>2026-03-28T11:34:57.022Z</time></trkpt><trkpt lat="45.5593765" lon="10.7450493"><ele>253.0</ele><time>2026-03-28T11:34:58.021Z</time></trkpt><trkpt lat="45.5594858" lon="10.7449737"><ele>253.0</ele><time>2026-03-28T11:34:59.021Z</time></trkpt><trkpt lat="45.5595897" lon="10.7449015"><ele>253.0</ele><time>2026-03-28T11:35:00.022Z</time></trkpt><trkpt lat="45.5596918" lon="10.7448218"><ele>253.25</ele><time>2026-03-28T11:35:01.023Z</time></trkpt><trkpt lat="45.5597963" lon="10.7447282"><ele>253.5</ele><time>2026-03-28T11:35:02.021Z</time></trkpt><trkpt lat="45.5598978" lon="10.7446242"><ele>253.75</ele><time>2026-03-28T11:35:03.026Z</time></trkpt><trkpt lat="45.5599988" lon="10.744509"><ele>254.0</ele><time>2026-03-28T11:35:04.02Z</time></trkpt><trkpt lat="45.560096" lon="10.7443913"><ele>253.25</ele><time>2026-03-28T11:35:05.02Z</time></trkpt><trkpt lat="45.5601853" lon="10.7442755"><ele>252.5</ele><time>2026-03-28T11:35:06.02Z</time></trkpt><trkpt lat="45.5602737" lon="10.7441518"><ele>251.75</ele><time>2026-03-28T11:35:07.019Z</time></trkpt><trkpt lat="45.5603678" lon="10.7440265"><ele>251.0</ele><time>2026-03-28T11:35:08.021Z</time></trkpt><trkpt lat="45.5604633" lon="10.7439077"><ele>250.5</ele><time>2026-03-28T11:35:09.019Z</time></trkpt><trkpt lat="45.5605577" lon="10.7437965"><ele>250.0</ele><time>2026-03-28T11:35:10.02Z</time></trkpt><trkpt lat="45.5606535" lon="10.7436945"><ele>249.5</ele><time>2026-03-28T11:35:11.022Z</time></trkpt><trkpt lat="45.5607543" lon="10.7436097"><ele>249.0</ele><time>2026-03-28T11:35:12.02Z</time></trkpt><trkpt lat="45.560867" lon="10.7435325"><ele>249.0</ele><time>2026-03-28T11:35:13.02Z</time></trkpt><trkpt lat="45.560986" lon="10.74347"><ele>249.0</ele><time>2026-03-28T11:35:14.021Z</time></trkpt><trkpt lat="45.5611107" lon="10.7434222"><ele>249.0</ele><time>2026-03-28T11:35:15.021Z</time></trkpt><trkpt lat="45.561245" lon="10.7433852"><ele>249.0</ele><time>2026-03-28T11:35:16.021Z</time></trkpt><trkpt lat="45.5613898" lon="10.7433577"><ele>248.0</ele><time>2026-03-28T11:35:17.02Z</time></trkpt><trkpt lat="45.5615323" lon="10.7433313"><ele>247.0</ele><time>2026-03-28T11:35:18.021Z</time></trkpt><trkpt lat="45.56166" lon="10.7433022"><ele>246.0</ele><time>2026-03-28T11:35:19.021Z</time></trkpt><trkpt lat="45.5617832" lon="10.7432737"><ele>245.0</ele><time>2026-03-28T11:35:20.021Z</time></trkpt><trkpt lat="45.5618968" lon="10.7432463"><ele>245.0</ele><time>2026-03-28T11:35:21.022Z</time></trkpt><trkpt lat="45.5620067" lon="10.743218"><ele>245.0</ele><time>2026-03-28T11:35:22.021Z</time></trkpt><trkpt lat="45.5621222" lon="10.7431867"><ele>245.0</ele><time>2026-03-28T11:35:23.02Z</time></trkpt><trkpt lat="45.5622455" lon="10.7431593"><ele>245.0</ele><time>2026-03-28T11:35:24.021Z</time></trkpt><trkpt lat="45.5623722" lon="10.7431273"><ele>244.25</ele><time>2026-03-28T11:35:25.02Z</time></trkpt><trkpt lat="45.5624947" lon="10.7430852"><ele>243.5</ele><time>2026-03-28T11:35:26.02Z</time></trkpt><trkpt lat="45.5626135" lon="10.7430255"><ele>242.75</ele><time>2026-03-28T11:35:27.019Z</time></trkpt><trkpt lat="45.562728" lon="10.7429495"><ele>242.0</ele><time>2026-03-28T11:35:28.019Z</time></trkpt><trkpt lat="45.5628402" lon="10.7428677"><ele>241.2</ele><time>2026-03-28T11:35:29.02Z</time></trkpt><trkpt lat="45.5629443" lon="10.7427965"><ele>240.39999999999998</ele><time>2026-03-28T11:35:30.017Z</time></trkpt><trkpt lat="45.5630358" lon="10.7427357"><ele>239.60000000000002</ele><time>2026-03-28T11:35:31.019Z</time></trkpt><trkpt lat="45.5631155" lon="10.7426817"><ele>238.8</ele><time>2026-03-28T11:35:32.018Z</time></trkpt><trkpt lat="45.5631838" lon="10.7426323"><ele>238.0</ele><time>2026-03-28T11:35:33.017Z</time></trkpt><trkpt lat="45.5632887" lon="10.7426068"><ele>237.99999999999997</ele><time>2026-03-28T11:35:35.02Z</time></trkpt><trkpt lat="45.5633455" lon="10.7426603"><ele>238.0</ele><time>2026-03-28T11:35:37.02Z</time></trkpt><trkpt lat="45.5633603" lon="10.7427813"><ele>238.0</ele><time>2026-03-28T11:35:39.021Z</time></trkpt><trkpt lat="45.5633477" lon="10.7428773"><ele>238.0</ele><time>2026-03-28T11:35:40.021Z</time></trkpt><trkpt lat="45.5633218" lon="10.7429933"><ele>237.99999999999997</ele><time>2026-03-28T11:35:41.022Z</time></trkpt><trkpt lat="45.563295" lon="10.743101"><ele>238.0</ele><time>2026-03-28T11:35:42.021Z</time></trkpt><trkpt lat="45.5632742" lon="10.7432083"><ele>238.2</ele><time>2026-03-28T11:35:43.024Z</time></trkpt><trkpt lat="45.5632642" lon="10.7433235"><ele>238.4</ele><time>2026-03-28T11:35:44.022Z</time></trkpt><trkpt lat="45.5632688" lon="10.743447"><ele>238.59999999999997</ele><time>2026-03-28T11:35:45.021Z</time></trkpt><trkpt lat="45.5632775" lon="10.7435762"><ele>238.79999999999998</ele><time>2026-03-28T11:35:46.023Z</time></trkpt><trkpt lat="45.5632853" lon="10.7437267"><ele>239.0</ele><time>2026-03-28T11:35:47.021Z</time></trkpt><trkpt lat="45.5633002" lon="10.7438668"><ele>239.0</ele><time>2026-03-28T11:35:48.022Z</time></trkpt><trkpt lat="45.5633292" lon="10.7439797"><ele>238.99999999999997</ele><time>2026-03-28T11:35:49.022Z</time></trkpt><trkpt lat="45.5633822" lon="10.7440672"><ele>238.99999999999997</ele><time>2026-03-28T11:35:50.022Z</time></trkpt><trkpt lat="45.5634563" lon="10.7441295"><ele>239.0</ele><time>2026-03-28T11:35:51.022Z</time></trkpt><trkpt lat="45.5635532" lon="10.744183"><ele>239.0</ele><time>2026-03-28T11:35:52.022Z</time></trkpt><trkpt lat="45.5636705" lon="10.744229"><ele>239.0</ele><time>2026-03-28T11:35:53.023Z</time></trkpt><trkpt lat="45.563796" lon="10.7442593"><ele>239.0</ele><time>2026-03-28T11:35:54.02Z</time></trkpt><trkpt lat="45.5639302" lon="10.7442755"><ele>239.0</ele><time>2026-03-28T11:35:55.019Z</time></trkpt><trkpt lat="45.5640618" lon="10.7442808"><ele>239.0</ele><time>2026-03-28T11:35:56.021Z</time></trkpt><trkpt lat="45.5641808" lon="10.7442883"><ele>239.0</ele><time>2026-03-28T11:35:57.019Z</time></trkpt><trkpt lat="45.5642843" lon="10.7442945"><ele>238.99999999999997</ele><time>2026-03-28T11:35:58.02Z</time></trkpt><trkpt lat="45.5643753" lon="10.7442997"><ele>238.99999999999997</ele><time>2026-03-28T11:35:59.022Z</time></trkpt><trkpt lat="45.5644672" lon="10.7443033"><ele>239.0</ele><time>2026-03-28T11:36:00.021Z</time></trkpt><trkpt lat="45.5645642" lon="10.744308"><ele>239.0</ele><time>2026-03-28T11:36:01.022Z</time></trkpt><trkpt lat="45.5646705" lon="10.7443143"><ele>239.75</ele><time>2026-03-28T11:36:02.021Z</time></trkpt><trkpt lat="45.5647917" lon="10.7443253"><ele>240.5</ele><time>2026-03-28T11:36:03.023Z</time></trkpt><trkpt lat="45.5649272" lon="10.744336"><ele>241.25</ele><time>2026-03-28T11:36:04.019Z</time></trkpt><trkpt lat="45.5650562" lon="10.7443387"><ele>242.0</ele><time>2026-03-28T11:36:05.021Z</time></trkpt><trkpt lat="45.565179" lon="10.7443352"><ele>242.0</ele><time>2026-03-28T11:36:06.018Z</time></trkpt><trkpt lat="45.5652908" lon="10.7443247"><ele>242.0</ele><time>2026-03-28T11:36:07.018Z</time></trkpt><trkpt lat="45.5654115" lon="10.7443112"><ele>242.0</ele><time>2026-03-28T11:36:08.019Z</time></trkpt><trkpt lat="45.5655278" lon="10.7442935"><ele>242.0</ele><time>2026-03-28T11:36:09.02Z</time></trkpt><trkpt lat="45.5656463" lon="10.7442668"><ele>242.25</ele><time>2026-03-28T11:36:10.019Z</time></trkpt><trkpt lat="45.5657698" lon="10.744228"><ele>242.5</ele><time>2026-03-28T11:36:11.019Z</time></trkpt><trkpt lat="45.5658985" lon="10.7441837"><ele>242.75</ele><time>2026-03-28T11:36:12.019Z</time></trkpt><trkpt lat="45.5660303" lon="10.7441413"><ele>243.0</ele><time>2026-03-28T11:36:13.02Z</time></trkpt><trkpt lat="45.5661658" lon="10.7441028"><ele>244.0</ele><time>2026-03-28T11:36:14.019Z</time></trkpt><trkpt lat="45.5662978" lon="10.7440683"><ele>245.0</ele><time>2026-03-28T11:36:15.022Z</time></trkpt><trkpt lat="45.5664308" lon="10.7440387"><ele>246.0</ele><time>2026-03-28T11:36:16.02Z</time></trkpt><trkpt lat="45.5665663" lon="10.744017"><ele>247.0</ele><time>2026-03-28T11:36:17.02Z</time></trkpt><trkpt lat="45.5667032" lon="10.744006"><ele>247.0</ele><time>2026-03-28T11:36:18.02Z</time></trkpt><trkpt lat="45.5668377" lon="10.7440052"><ele>247.0</ele><time>2026-03-28T11:36:19.017Z</time></trkpt><trkpt lat="45.5669682" lon="10.7440075"><ele>247.0</ele><time>2026-03-28T11:36:20.018Z</time></trkpt><trkpt lat="45.5670938" lon="10.744019"><ele>247.0</ele><time>2026-03-28T11:36:21.018Z</time></trkpt><trkpt lat="45.567217" lon="10.7440467"><ele>247.39999999999998</ele><time>2026-03-28T11:36:22.018Z</time></trkpt><trkpt lat="45.5673412" lon="10.7440895"><ele>247.79999999999998</ele><time>2026-03-28T11:36:23.02Z</time></trkpt><trkpt lat="45.5674567" lon="10.7441357"><ele>248.2</ele><time>2026-03-28T11:36:24.023Z</time></trkpt><trkpt lat="45.5675515" lon="10.7441692"><ele>248.6</ele><time>2026-03-28T11:36:25.019Z</time></trkpt><trkpt lat="45.5676262" lon="10.7441932"><ele>249.0</ele><time>2026-03-28T11:36:26.019Z</time></trkpt><trkpt lat="45.5676953" lon="10.7442213"><ele>249.0</ele><time>2026-03-28T11:36:28.021Z</time></trkpt><trkpt lat="45.5677555" lon="10.7441762"><ele>249.0</ele><time>2026-03-28T11:36:32.021Z</time></trkpt><trkpt lat="45.5677485" lon="10.7440415"><ele>249.0</ele><time>2026-03-28T11:36:35.019Z</time></trkpt><trkpt lat="45.5677338" lon="10.7439025"><ele>249.0</ele><time>2026-03-28T11:36:37.02Z</time></trkpt><trkpt lat="45.5677217" lon="10.743814"><ele>249.0</ele><time>2026-03-28T11:36:38.02Z</time></trkpt><trkpt lat="45.5677107" lon="10.7437087"><ele>249.0</ele><time>2026-03-28T11:36:39.021Z</time></trkpt><trkpt lat="45.5676973" lon="10.7435947"><ele>248.83333333333334</ele><time>2026-03-28T11:36:40.02Z</time></trkpt><trkpt lat="45.567684" lon="10.7434733"><ele>248.66666666666669</ele><time>2026-03-28T11:36:41.02Z</time></trkpt><trkpt lat="45.5676708" lon="10.7433623"><ele>248.5</ele><time>2026-03-28T11:36:42.023Z</time></trkpt><trkpt lat="45.5676557" lon="10.7432638"><ele>248.33333333333334</ele><time>2026-03-28T11:36:43.018Z</time></trkpt><trkpt lat="45.5676375" lon="10.743174"><ele>248.16666666666669</ele><time>2026-03-28T11:36:44.016Z</time></trkpt><trkpt lat="45.5676087" lon="10.7430333"><ele>248.0</ele><time>2026-03-28T11:36:46.017Z</time></trkpt><trkpt lat="45.5675995" lon="10.7429147"><ele>248.00000000000003</ele><time>2026-03-28T11:36:48.021Z</time></trkpt><trkpt lat="45.5676215" lon="10.742751"><ele>248.0</ele><time>2026-03-28T11:36:50.019Z</time></trkpt><trkpt lat="45.5676395" lon="10.7426637"><ele>248.0</ele><time>2026-03-28T11:36:51.019Z</time></trkpt><trkpt lat="45.5676557" lon="10.7425718"><ele>248.0</ele><time>2026-03-28T11:36:52.02Z</time></trkpt><trkpt lat="45.5676733" lon="10.742485"><ele>248.00000000000003</ele><time>2026-03-28T11:36:53.022Z</time></trkpt><trkpt lat="45.567709" lon="10.7423332"><ele>248.0</ele><time>2026-03-28T11:36:55.021Z</time></trkpt><trkpt lat="45.5677427" lon="10.7422348"><ele>247.33333333333334</ele><time>2026-03-28T11:36:56.02Z</time></trkpt><trkpt lat="45.5677867" lon="10.7421395"><ele>246.66666666666669</ele><time>2026-03-28T11:36:57.021Z</time></trkpt><trkpt lat="45.5678315" lon="10.742054"><ele>246.0</ele><time>2026-03-28T11:36:58.02Z</time></trkpt><trkpt lat="45.5678753" lon="10.7419662"><ele>245.33333333333331</ele><time>2026-03-28T11:36:59.019Z</time></trkpt><trkpt lat="45.5679227" lon="10.741871"><ele>244.66666666666666</ele><time>2026-03-28T11:37:00.021Z</time></trkpt><trkpt lat="45.5679695" lon="10.7417797"><ele>244.0</ele><time>2026-03-28T11:37:01.021Z</time></trkpt><trkpt lat="45.5680088" lon="10.7416915"><ele>243.49999999999997</ele><time>2026-03-28T11:37:02.02Z</time></trkpt><trkpt lat="45.5680353" lon="10.7416005"><ele>243.0</ele><time>2026-03-28T11:37:03.022Z</time></trkpt><trkpt lat="45.5680405" lon="10.741429"><ele>242.5</ele><time>2026-03-28T11:37:05.019Z</time></trkpt><trkpt lat="45.5680313" lon="10.7413277"><ele>242.0</ele><time>2026-03-28T11:37:06.021Z</time></trkpt><trkpt lat="45.5680102" lon="10.7412348"><ele>241.49999999999997</ele><time>2026-03-28T11:37:07.018Z</time></trkpt><trkpt lat="45.5679755" lon="10.7411455"><ele>241.0</ele><time>2026-03-28T11:37:08.017Z</time></trkpt><trkpt lat="45.567928" lon="10.741055"><ele>239.0</ele><time>2026-03-28T11:37:09.017Z</time></trkpt><trkpt lat="45.5678718" lon="10.7409768"><ele>237.00000000000003</ele><time>2026-03-28T11:37:10.017Z</time></trkpt><trkpt lat="45.5678045" lon="10.7409062"><ele>235.00000000000003</ele><time>2026-03-28T11:37:11.019Z</time></trkpt><trkpt lat="45.5677218" lon="10.7408467"><ele>233.0</ele><time>2026-03-28T11:37:12.02Z</time></trkpt><trkpt lat="45.5676222" lon="10.740795"><ele>231.0</ele><time>2026-03-28T11:37:13.02Z</time></trkpt><trkpt lat="45.5675008" lon="10.7407402"><ele>230.25</ele><time>2026-03-28T11:37:14.02Z</time></trkpt><trkpt lat="45.5673717" lon="10.7406895"><ele>229.5</ele><time>2026-03-28T11:37:15.021Z</time></trkpt><trkpt lat="45.567236" lon="10.7406503"><ele>228.75</ele><time>2026-03-28T11:37:16.023Z</time></trkpt><trkpt lat="45.5671133" lon="10.7406158"><ele>228.0</ele><time>2026-03-28T11:37:17.023Z</time></trkpt><trkpt lat="45.5670083" lon="10.7405805"><ele>228.0</ele><time>2026-03-28T11:37:18.021Z</time></trkpt><trkpt lat="45.566913" lon="10.740529"><ele>228.0</ele><time>2026-03-28T11:37:19.023Z</time></trkpt><trkpt lat="45.5668238" lon="10.7404513"><ele>228.0</ele><time>2026-03-28T11:37:20.023Z</time></trkpt><trkpt lat="45.566742" lon="10.740343"><ele>228.0</ele><time>2026-03-28T11:37:21.022Z</time></trkpt><trkpt lat="45.5666585" lon="10.7402053"><ele>228.0</ele><time>2026-03-28T11:37:22.022Z</time></trkpt><trkpt lat="45.5665835" lon="10.7400595"><ele>229.0</ele><time>2026-03-28T11:37:23.023Z</time></trkpt><trkpt lat="45.5665183" lon="10.7399147"><ele>230.0</ele><time>2026-03-28T11:37:24.023Z</time></trkpt><trkpt lat="45.5664663" lon="10.739777"><ele>231.0</ele><time>2026-03-28T11:37:25.021Z</time></trkpt><trkpt lat="45.5664295" lon="10.7396492"><ele>232.0</ele><time>2026-03-28T11:37:26.023Z</time></trkpt><trkpt lat="45.5664077" lon="10.7395142"><ele>233.0</ele><time>2026-03-28T11:37:27.024Z</time></trkpt><trkpt lat="45.5663908" lon="10.7393748"><ele>233.8</ele><time>2026-03-28T11:37:28.022Z</time></trkpt><trkpt lat="45.5663727" lon="10.7392402"><ele>234.60000000000002</ele><time>2026-03-28T11:37:29.021Z</time></trkpt><trkpt lat="45.5663617" lon="10.7391275"><ele>235.39999999999998</ele><time>2026-03-28T11:37:30.021Z</time></trkpt><trkpt lat="45.5663867" lon="10.7389548"><ele>236.2</ele><time>2026-03-28T11:37:32.021Z</time></trkpt><trkpt lat="45.566436" lon="10.7388647"><ele>237.0</ele><time>2026-03-28T11:37:33.021Z</time></trkpt><trkpt lat="45.5665082" lon="10.738765"><ele>237.0</ele><time>2026-03-28T11:37:34.019Z</time></trkpt><trkpt lat="45.5665868" lon="10.7386605"><ele>237.0</ele><time>2026-03-28T11:37:35.019Z</time></trkpt><trkpt lat="45.5666708" lon="10.7385432"><ele>237.0</ele><time>2026-03-28T11:37:36.021Z</time></trkpt><trkpt lat="45.5667612" lon="10.7384148"><ele>237.0</ele><time>2026-03-28T11:37:37.021Z</time></trkpt><trkpt lat="45.5668538" lon="10.738276"><ele>237.0</ele><time>2026-03-28T11:37:38.021Z</time></trkpt><trkpt lat="45.5669457" lon="10.7381315"><ele>237.0</ele><time>2026-03-28T11:37:39.022Z</time></trkpt><trkpt lat="45.5670365" lon="10.7379865"><ele>237.0</ele><time>2026-03-28T11:37:40.023Z</time></trkpt><trkpt lat="45.567124" lon="10.7378448"><ele>237.0</ele><time>2026-03-28T11:37:41.022Z</time></trkpt><trkpt lat="45.5672037" lon="10.7377072"><ele>235.6</ele><time>2026-03-28T11:37:42.02Z</time></trkpt><trkpt lat="45.5672762" lon="10.737576"><ele>234.2</ele><time>2026-03-28T11:37:43.021Z</time></trkpt><trkpt lat="45.5673457" lon="10.7374528"><ele>232.8</ele><time>2026-03-28T11:37:44.022Z</time></trkpt><trkpt lat="45.5674122" lon="10.7373375"><ele>231.4</ele><time>2026-03-28T11:37:45.021Z</time></trkpt><trkpt lat="45.5674702" lon="10.7372192"><ele>230.0</ele><time>2026-03-28T11:37:46.022Z</time></trkpt><trkpt lat="45.5675172" lon="10.7370937"><ele>230.0</ele><time>2026-03-28T11:37:47.023Z</time></trkpt><trkpt lat="45.5675512" lon="10.7369548"><ele>230.0</ele><time>2026-03-28T11:37:48.022Z</time></trkpt><trkpt lat="45.5675787" lon="10.7368098"><ele>230.0</ele><time>2026-03-28T11:37:49.023Z</time></trkpt><trkpt lat="45.5675918" lon="10.7366593"><ele>230.0</ele><time>2026-03-28T11:37:50.021Z</time></trkpt><trkpt lat="45.5676005" lon="10.7365212"><ele>230.0</ele><time>2026-03-28T11:37:51.022Z</time></trkpt><trkpt lat="45.5676063" lon="10.7364073"><ele>229.83333333333334</ele><time>2026-03-28T11:37:52.021Z</time></trkpt><trkpt lat="45.5676518" lon="10.7363013"><ele>229.66666666666669</ele><time>2026-03-28T11:37:54.02Z</time></trkpt><trkpt lat="45.5677248" lon="10.7363635"><ele>229.5</ele><time>2026-03-28T11:37:56.021Z</time></trkpt><trkpt lat="45.5677703" lon="10.7364392"><ele>229.33333333333331</ele><time>2026-03-28T11:37:57.02Z</time></trkpt><trkpt lat="45.5678615" lon="10.7365092"><ele>229.16666666666666</ele><time>2026-03-28T11:37:59.018Z</time></trkpt><trkpt lat="45.5679145" lon="10.7364217"><ele>229.0</ele><time>2026-03-28T11:38:08.021Z</time></trkpt><trkpt lat="45.5678867" lon="10.7362787"><ele>228.99999999999997</ele><time>2026-03-28T11:38:10.023Z</time></trkpt><trkpt lat="45.5678453" lon="10.736196"><ele>229.0</ele><time>2026-03-28T11:38:11.022Z</time></trkpt><trkpt lat="45.567798" lon="10.7361083"><ele>229.0</ele><time>2026-03-28T11:38:12.021Z</time></trkpt><trkpt lat="45.5677648" lon="10.7360255"><ele>229.0</ele><time>2026-03-28T11:38:13.021Z</time></trkpt><trkpt lat="45.5677552" lon="10.7358907"><ele>228.99999999999997</ele><time>2026-03-28T11:38:15.022Z</time></trkpt><trkpt lat="45.567828" lon="10.7358273"><ele>229.0</ele><time>2026-03-28T11:38:17.022Z</time></trkpt><trkpt lat="45.5679628" lon="10.735858"><ele>227.2</ele><time>2026-03-28T11:38:19.023Z</time></trkpt><trkpt lat="45.568054" lon="10.7358867"><ele>225.39999999999998</ele><time>2026-03-28T11:38:20.023Z</time></trkpt><trkpt lat="45.5681625" lon="10.7359267"><ele>223.6</ele><time>2026-03-28T11:38:21.021Z</time></trkpt><trkpt lat="45.5682757" lon="10.7359707"><ele>221.8</ele><time>2026-03-28T11:38:22.02Z</time></trkpt><trkpt lat="45.5683995" lon="10.736008"><ele>220.0</ele><time>2026-03-28T11:38:23.021Z</time></trkpt><trkpt lat="45.5685347" lon="10.73603"><ele>220.0</ele><time>2026-03-28T11:38:24.021Z</time></trkpt><trkpt lat="45.5686707" lon="10.7360343"><ele>220.0</ele><time>2026-03-28T11:38:25.022Z</time></trkpt><trkpt lat="45.5688045" lon="10.736035"><ele>220.0</ele><time>2026-03-28T11:38:26.022Z</time></trkpt><trkpt lat="45.5689365" lon="10.7360432"><ele>220.0</ele><time>2026-03-28T11:38:27.022Z</time></trkpt><trkpt lat="45.5690627" lon="10.7360672"><ele>219.75</ele><time>2026-03-28T11:38:28.023Z</time></trkpt><trkpt lat="45.5691832" lon="10.736106"><ele>219.5</ele><time>2026-03-28T11:38:29.024Z</time></trkpt><trkpt lat="45.5693028" lon="10.7361557"><ele>219.25</ele><time>2026-03-28T11:38:30.022Z</time></trkpt><trkpt lat="45.5694223" lon="10.7361998"><ele>219.0</ele><time>2026-03-28T11:38:31.02Z</time></trkpt><trkpt lat="45.5695418" lon="10.7362377"><ele>219.0</ele><time>2026-03-28T11:38:32.021Z</time></trkpt><trkpt lat="45.5696642" lon="10.7362662"><ele>219.0</ele><time>2026-03-28T11:38:33.022Z</time></trkpt><trkpt lat="45.5697898" lon="10.7362888"><ele>219.0</ele><time>2026-03-28T11:38:34.024Z</time></trkpt><trkpt lat="45.5699182" lon="10.736308"><ele>219.0</ele><time>2026-03-28T11:38:35.023Z</time></trkpt><trkpt lat="45.5700498" lon="10.7363207"><ele>219.0</ele><time>2026-03-28T11:38:36.023Z</time></trkpt><trkpt lat="45.5701853" lon="10.7363292"><ele>219.0</ele><time>2026-03-28T11:38:37.021Z</time></trkpt><trkpt lat="45.5703108" lon="10.7363337"><ele>219.0</ele><time>2026-03-28T11:38:38.028Z</time></trkpt><trkpt lat="45.5704188" lon="10.7363333"><ele>219.0</ele><time>2026-03-28T11:38:39.023Z</time></trkpt><trkpt lat="45.5705015" lon="10.7363272"><ele>219.6</ele><time>2026-03-28T11:38:40.025Z</time></trkpt><trkpt lat="45.5706038" lon="10.7363485"><ele>220.2</ele><time>2026-03-28T11:38:42.024Z</time></trkpt><trkpt lat="45.5706828" lon="10.7365017"><ele>220.79999999999998</ele><time>2026-03-28T11:38:44.022Z</time></trkpt><trkpt lat="45.5707153" lon="10.7366277"><ele>221.39999999999998</ele><time>2026-03-28T11:38:45.024Z</time></trkpt><trkpt lat="45.5707463" lon="10.7367738"><ele>222.0</ele><time>2026-03-28T11:38:46.02Z</time></trkpt><trkpt lat="45.5707687" lon="10.7369055"><ele>222.0</ele><time>2026-03-28T11:38:47.021Z</time></trkpt><trkpt lat="45.5707855" lon="10.7370057"><ele>222.0</ele><time>2026-03-28T11:38:48.021Z</time></trkpt><trkpt lat="45.5708037" lon="10.7371765"><ele>222.0</ele><time>2026-03-28T11:38:50.023Z</time></trkpt><trkpt lat="45.570815" lon="10.7373377"><ele>222.0</ele><time>2026-03-28T11:38:52.023Z</time></trkpt><trkpt lat="45.5708235" lon="10.7374862"><ele>222.0</ele><time>2026-03-28T11:38:54.023Z</time></trkpt><trkpt lat="45.5708313" lon="10.7376028"><ele>222.0</ele><time>2026-03-28T11:38:56.023Z</time></trkpt><trkpt lat="45.5708385" lon="10.7377083"><ele>222.0</ele><time>2026-03-28T11:38:58.022Z</time></trkpt><trkpt lat="45.570853" lon="10.7378207"><ele>222.0</ele><time>2026-03-28T11:39:00.023Z</time></trkpt><trkpt lat="45.5708597" lon="10.7379268"><ele>222.0</ele><time>2026-03-28T11:39:02.021Z</time></trkpt><trkpt lat="45.5708843" lon="10.738055"><ele>222.0</ele><time>2026-03-28T11:39:04.021Z</time></trkpt><trkpt lat="45.5708948" lon="10.7381523"><ele>222.0</ele><time>2026-03-28T11:39:06.023Z</time></trkpt><trkpt lat="45.5708983" lon="10.7382492"><ele>221.83333333333334</ele><time>2026-03-28T11:39:10.019Z</time></trkpt><trkpt lat="45.5709157" lon="10.7383408"><ele>221.66666666666669</ele><time>2026-03-28T11:39:15.021Z</time></trkpt><trkpt lat="45.5709278" lon="10.7384572"><ele>221.5</ele><time>2026-03-28T11:39:17.022Z</time></trkpt><trkpt lat="45.570943" lon="10.7386148"><ele>221.33333333333334</ele><time>2026-03-28T11:39:19.02Z</time></trkpt><trkpt lat="45.5709403" lon="10.7387047"><ele>221.16666666666669</ele><time>2026-03-28T11:39:20.02Z</time></trkpt><trkpt lat="45.5709352" lon="10.7388173"><ele>221.0</ele><time>2026-03-28T11:39:21.023Z</time></trkpt><trkpt lat="45.5709355" lon="10.7389375"><ele>221.00000000000003</ele><time>2026-03-28T11:39:22.024Z</time></trkpt><trkpt lat="45.5709383" lon="10.7390648"><ele>221.0</ele><time>2026-03-28T11:39:23.022Z</time></trkpt><trkpt lat="45.570938" lon="10.7391833"><ele>221.0</ele><time>2026-03-28T11:39:24.024Z</time></trkpt><trkpt lat="45.5709318" lon="10.7392962"><ele>221.0</ele><time>2026-03-28T11:39:25.022Z</time></trkpt><trkpt lat="45.5709237" lon="10.7393935"><ele>221.00000000000003</ele><time>2026-03-28T11:39:26.021Z</time></trkpt><trkpt lat="45.5709263" lon="10.7395305"><ele>221.0</ele><time>2026-03-28T11:39:28.021Z</time></trkpt><trkpt lat="45.5710073" lon="10.7395997"><ele>221.00000000000003</ele><time>2026-03-28T11:39:31.022Z</time></trkpt><trkpt lat="45.5711112" lon="10.7395727"><ele>221.0</ele><time>2026-03-28T11:39:33.022Z</time></trkpt><trkpt lat="45.5711815" lon="10.7395855"><ele>221.0</ele><time>2026-03-28T11:39:35.021Z</time></trkpt><trkpt lat="45.571225" lon="10.7396623"><ele>221.0</ele><time>2026-03-28T11:39:37.021Z</time></trkpt><trkpt lat="45.5712455" lon="10.739819"><ele>221.00000000000003</ele><time>2026-03-28T11:39:39.023Z</time></trkpt><trkpt lat="45.5712505" lon="10.7399313"><ele>221.0</ele><time>2026-03-28T11:39:40.023Z</time></trkpt><trkpt lat="45.5712475" lon="10.7400635"><ele>218.50000000000003</ele><time>2026-03-28T11:39:41.021Z</time></trkpt><trkpt lat="45.571241" lon="10.7401822"><ele>216.0</ele><time>2026-03-28T11:39:42.022Z</time></trkpt><trkpt lat="45.571233" lon="10.7402997"><ele>213.5</ele><time>2026-03-28T11:39:43.024Z</time></trkpt><trkpt lat="45.57123" lon="10.7404185"><ele>211.0</ele><time>2026-03-28T11:39:44.023Z</time></trkpt><trkpt lat="45.5712328" lon="10.740531"><ele>208.50000000000003</ele><time>2026-03-28T11:39:45.023Z</time></trkpt><trkpt lat="45.5712413" lon="10.7406225"><ele>206.0</ele><time>2026-03-28T11:39:46.023Z</time></trkpt><trkpt lat="45.5712515" lon="10.7407803"><ele>205.50000000000003</ele><time>2026-03-28T11:39:48.021Z</time></trkpt><trkpt lat="45.5712128" lon="10.7408948"><ele>205.0</ele><time>2026-03-28T11:39:50.023Z</time></trkpt><trkpt lat="45.5711405" lon="10.7409647"><ele>204.5</ele><time>2026-03-28T11:39:52.02Z</time></trkpt><trkpt lat="45.5710922" lon="10.7410685"><ele>204.0</ele><time>2026-03-28T11:39:54.02Z</time></trkpt><trkpt lat="45.5710905" lon="10.741232"><ele>203.50000000000003</ele><time>2026-03-28T11:39:56.02Z</time></trkpt><trkpt lat="45.5711072" lon="10.7413213"><ele>203.0</ele><time>2026-03-28T11:39:57.02Z</time></trkpt><trkpt lat="45.5711437" lon="10.741449"><ele>203.4</ele><time>2026-03-28T11:39:59.018Z</time></trkpt><trkpt lat="45.5711748" lon="10.7415622"><ele>203.8</ele><time>2026-03-28T11:40:01.017Z</time></trkpt><trkpt lat="45.571198" lon="10.741672"><ele>204.2</ele><time>2026-03-28T11:40:04.02Z</time></trkpt><trkpt lat="45.5712177" lon="10.7417872"><ele>204.6</ele><time>2026-03-28T11:40:06.019Z</time></trkpt><trkpt lat="45.5712568" lon="10.7419438"><ele>205.0</ele><time>2026-03-28T11:40:08.018Z</time></trkpt><trkpt lat="45.5712947" lon="10.7420993"><ele>205.71428571428572</ele><time>2026-03-28T11:40:10.019Z</time></trkpt><trkpt lat="45.5713143" lon="10.7421857"><ele>206.42857142857142</ele><time>2026-03-28T11:40:11.02Z</time></trkpt><trkpt lat="45.5713305" lon="10.7422745"><ele>207.14285714285714</ele><time>2026-03-28T11:40:12.019Z</time></trkpt><trkpt lat="45.5713495" lon="10.7423822"><ele>207.85714285714286</ele><time>2026-03-28T11:40:13.02Z</time></trkpt><trkpt lat="45.571371" lon="10.7424962"><ele>208.57142857142856</ele><time>2026-03-28T11:40:14.019Z</time></trkpt><trkpt lat="45.5713985" lon="10.7426017"><ele>209.28571428571428</ele><time>2026-03-28T11:40:15.02Z</time></trkpt><trkpt lat="45.5714273" lon="10.7427045"><ele>210.0</ele><time>2026-03-28T11:40:16.02Z</time></trkpt><trkpt lat="45.5714573" lon="10.7428063"><ele>210.0</ele><time>2026-03-28T11:40:17.02Z</time></trkpt><trkpt lat="45.5714862" lon="10.7429058"><ele>210.0</ele><time>2026-03-28T11:40:18.022Z</time></trkpt><trkpt lat="45.5715043" lon="10.7430065"><ele>210.0</ele><time>2026-03-28T11:40:20.022Z</time></trkpt><trkpt lat="45.5714398" lon="10.7429433"><ele>210.0</ele><time>2026-03-28T11:40:28.021Z</time></trkpt><trkpt lat="45.5713828" lon="10.7428045"><ele>210.0</ele><time>2026-03-28T11:40:30.02Z</time></trkpt><trkpt lat="45.5713447" lon="10.742659"><ele>210.0</ele><time>2026-03-28T11:40:32.02Z</time></trkpt><trkpt lat="45.5713245" lon="10.742518"><ele>210.0</ele><time>2026-03-28T11:40:34.02Z</time></trkpt><trkpt lat="45.57128" lon="10.74233"><ele>210.0</ele><time>2026-03-28T11:40:36.02Z</time></trkpt><trkpt lat="45.5712473" lon="10.7422088"><ele>210.0</ele><time>2026-03-28T11:40:37.021Z</time></trkpt><trkpt lat="45.5712033" lon="10.7420828"><ele>210.0</ele><time>2026-03-28T11:40:38.019Z</time></trkpt><trkpt lat="45.5711702" lon="10.7420023"><ele>210.0</ele><time>2026-03-28T11:40:39.02Z</time></trkpt><trkpt lat="45.5712392" lon="10.7419922"><ele>210.0</ele><time>2026-03-28T11:40:44.02Z</time></trkpt><trkpt lat="45.571321" lon="10.7420888"><ele>210.0</ele><time>2026-03-28T11:40:46.02Z</time></trkpt><trkpt lat="45.5713765" lon="10.7421582"><ele>210.0</ele><time>2026-03-28T11:40:48.019Z</time></trkpt><trkpt lat="45.5714258" lon="10.7422387"><ele>210.0</ele><time>2026-03-28T11:40:50.018Z</time></trkpt><trkpt lat="45.571486" lon="10.7422977"><ele>210.0</ele><time>2026-03-28T11:40:52.019Z</time></trkpt><trkpt lat="45.5715362" lon="10.742365"><ele>210.0</ele><time>2026-03-28T11:40:54.02Z</time></trkpt><trkpt lat="45.5716018" lon="10.7424683"><ele>210.0</ele><time>2026-03-28T11:40:56.02Z</time></trkpt><trkpt lat="45.5717052" lon="10.7424913"><ele>210.0</ele><time>2026-03-28T11:40:58.019Z</time></trkpt><trkpt lat="45.5718498" lon="10.7424367"><ele>210.0</ele><time>2026-03-28T11:41:00.02Z</time></trkpt><trkpt lat="45.5719305" lon="10.7424052"><ele>210.0</ele><time>2026-03-28T11:41:01.019Z</time></trkpt><trkpt lat="45.5720217" lon="10.7423878"><ele>210.0</ele><time>2026-03-28T11:41:03.021Z</time></trkpt><trkpt lat="45.5721138" lon="10.7424093"><ele>209.33333333333334</ele><time>2026-03-28T11:41:05.02Z</time></trkpt><trkpt lat="45.5722213" lon="10.7424925"><ele>208.66666666666669</ele><time>2026-03-28T11:41:07.022Z</time></trkpt><trkpt lat="45.5722863" lon="10.742553"><ele>208.0</ele><time>2026-03-28T11:41:08.02Z</time></trkpt><trkpt lat="45.5723445" lon="10.7426138"><ele>207.33333333333334</ele><time>2026-03-28T11:41:09.019Z</time></trkpt><trkpt lat="45.5724018" lon="10.7426792"><ele>206.66666666666669</ele><time>2026-03-28T11:41:10.019Z</time></trkpt><trkpt lat="45.5724693" lon="10.7427485"><ele>206.0</ele><time>2026-03-28T11:41:11.02Z</time></trkpt><trkpt lat="45.5725522" lon="10.7428198"><ele>205.8</ele><time>2026-03-28T11:41:12.02Z</time></trkpt><trkpt lat="45.5726385" lon="10.7429022"><ele>205.60000000000002</ele><time>2026-03-28T11:41:13.018Z</time></trkpt><trkpt lat="45.5727345" lon="10.7429982"><ele>205.4</ele><time>2026-03-28T11:41:14.019Z</time></trkpt><trkpt lat="45.5728237" lon="10.7430925"><ele>205.2</ele><time>2026-03-28T11:41:15.018Z</time></trkpt><trkpt lat="45.5728972" lon="10.74318"><ele>205.0</ele><time>2026-03-28T11:41:16.019Z</time></trkpt><trkpt lat="45.572966" lon="10.74327"><ele>204.99999999999997</ele><time>2026-03-28T11:41:17.02Z</time></trkpt><trkpt lat="45.5730143" lon="10.7433405"><ele>205.0</ele><time>2026-03-28T11:41:18.021Z</time></trkpt><trkpt lat="45.5730752" lon="10.7434002"><ele>205.0</ele><time>2026-03-28T11:41:19.02Z</time></trkpt><trkpt lat="45.5731662" lon="10.7435043"><ele>205.0</ele><time>2026-03-28T11:41:21.022Z</time></trkpt><trkpt lat="45.5732152" lon="10.7435797"><ele>204.99999999999997</ele><time>2026-03-28T11:41:22.019Z</time></trkpt><trkpt lat="45.573277" lon="10.7436733"><ele>205.0</ele><time>2026-03-28T11:41:23.02Z</time></trkpt><trkpt lat="45.5733545" lon="10.7437663"><ele>204.66666666666666</ele><time>2026-03-28T11:41:24.019Z</time></trkpt><trkpt lat="45.5734305" lon="10.74385"><ele>204.33333333333331</ele><time>2026-03-28T11:41:25.02Z</time></trkpt><trkpt lat="45.5734965" lon="10.743919"><ele>204.0</ele><time>2026-03-28T11:41:26.018Z</time></trkpt><trkpt lat="45.573549" lon="10.743971"><ele>203.66666666666669</ele><time>2026-03-28T11:41:27.019Z</time></trkpt><trkpt lat="45.5736118" lon="10.7440488"><ele>203.33333333333334</ele><time>2026-03-28T11:41:29.019Z</time></trkpt><trkpt lat="45.5736802" lon="10.744099"><ele>203.0</ele><time>2026-03-28T11:41:32.019Z</time></trkpt><trkpt lat="45.5737553" lon="10.744186"><ele>203.0</ele><time>2026-03-28T11:41:35.019Z</time></trkpt><trkpt lat="45.5738083" lon="10.7442483"><ele>203.0</ele><time>2026-03-28T11:41:36.018Z</time></trkpt><trkpt lat="45.5738735" lon="10.7443198"><ele>203.0</ele><time>2026-03-28T11:41:37.018Z</time></trkpt><trkpt lat="45.5739508" lon="10.7443947"><ele>203.0</ele><time>2026-03-28T11:41:38.018Z</time></trkpt><trkpt lat="45.5740393" lon="10.7444902"><ele>203.0</ele><time>2026-03-28T11:41:39.019Z</time></trkpt><trkpt lat="45.5741385" lon="10.7446047"><ele>203.5</ele><time>2026-03-28T11:41:40.017Z</time></trkpt><trkpt lat="45.5742408" lon="10.7447282"><ele>204.0</ele><time>2026-03-28T11:41:41.019Z</time></trkpt><trkpt lat="45.5743568" lon="10.7448667"><ele>204.5</ele><time>2026-03-28T11:41:42.021Z</time></trkpt><trkpt lat="45.5744623" lon="10.7449885"><ele>205.0</ele><time>2026-03-28T11:41:43.02Z</time></trkpt><trkpt lat="45.5745547" lon="10.7450923"><ele>205.0</ele><time>2026-03-28T11:41:44.022Z</time></trkpt><trkpt lat="45.5746395" lon="10.7451878"><ele>205.0</ele><time>2026-03-28T11:41:45.023Z</time></trkpt><trkpt lat="45.574707" lon="10.7452718"><ele>205.0</ele><time>2026-03-28T11:41:46.02Z</time></trkpt><trkpt lat="45.5747598" lon="10.7453565"><ele>205.0</ele><time>2026-03-28T11:41:47.021Z</time></trkpt><trkpt lat="45.574805" lon="10.7454622"><ele>205.0</ele><time>2026-03-28T11:41:48.02Z</time></trkpt><trkpt lat="45.5748587" lon="10.7455742"><ele>209.75</ele><time>2026-03-28T11:41:49.021Z</time></trkpt><trkpt lat="45.574926" lon="10.7456745"><ele>214.5</ele><time>2026-03-28T11:41:50.02Z</time></trkpt><trkpt lat="45.5750095" lon="10.7457663"><ele>219.25</ele><time>2026-03-28T11:41:51.022Z</time></trkpt><trkpt lat="45.5751135" lon="10.7458525"><ele>224.0</ele><time>2026-03-28T11:41:52.021Z</time></trkpt><trkpt lat="45.57523" lon="10.745945"><ele>224.0</ele><time>2026-03-28T11:41:53.022Z</time></trkpt><trkpt lat="45.5753505" lon="10.7460317"><ele>224.0</ele><time>2026-03-28T11:41:54.021Z</time></trkpt><trkpt lat="45.5754663" lon="10.7461002"><ele>224.0</ele><time>2026-03-28T11:41:55.021Z</time></trkpt><trkpt lat="45.5755803" lon="10.7461525"><ele>224.0</ele><time>2026-03-28T11:41:56.02Z</time></trkpt><trkpt lat="45.5756943" lon="10.7461905"><ele>226.25</ele><time>2026-03-28T11:41:57.021Z</time></trkpt><trkpt lat="45.5758075" lon="10.7462117"><ele>228.5</ele><time>2026-03-28T11:41:58.02Z</time></trkpt><trkpt lat="45.5759282" lon="10.7462263"><ele>230.75</ele><time>2026-03-28T11:41:59.022Z</time></trkpt><trkpt lat="45.5760492" lon="10.7462295"><ele>233.0</ele><time>2026-03-28T11:42:00.021Z</time></trkpt><trkpt lat="45.576168" lon="10.7462267"><ele>233.4</ele><time>2026-03-28T11:42:01.02Z</time></trkpt><trkpt lat="45.5762792" lon="10.7462252"><ele>233.8</ele><time>2026-03-28T11:42:02.018Z</time></trkpt><trkpt lat="45.576374" lon="10.7462245"><ele>234.2</ele><time>2026-03-28T11:42:03.019Z</time></trkpt><trkpt lat="45.5764502" lon="10.746231"><ele>234.6</ele><time>2026-03-28T11:42:04.018Z</time></trkpt><trkpt lat="45.5765125" lon="10.7462482"><ele>235.0</ele><time>2026-03-28T11:42:05.02Z</time></trkpt><trkpt lat="45.576613" lon="10.7463607"><ele>234.99999999999997</ele><time>2026-03-28T11:42:07.039Z</time></trkpt><trkpt lat="45.5766442" lon="10.7464592"><ele>235.0</ele><time>2026-03-28T11:42:08.022Z</time></trkpt><trkpt lat="45.5766692" lon="10.746576"><ele>235.0</ele><time>2026-03-28T11:42:09.023Z</time></trkpt><trkpt lat="45.5766985" lon="10.7466827"><ele>235.0</ele><time>2026-03-28T11:42:10.022Z</time></trkpt><trkpt lat="45.5767495" lon="10.7467625"><ele>234.99999999999997</ele><time>2026-03-28T11:42:11.023Z</time></trkpt><trkpt lat="45.576817" lon="10.746814"><ele>235.0</ele><time>2026-03-28T11:42:12.023Z</time></trkpt><trkpt lat="45.5769003" lon="10.746838"><ele>235.0</ele><time>2026-03-28T11:42:13.023Z</time></trkpt><trkpt lat="45.5769943" lon="10.7468342"><ele>235.0</ele><time>2026-03-28T11:42:14.025Z</time></trkpt><trkpt lat="45.5770828" lon="10.7468098"><ele>235.0</ele><time>2026-03-28T11:42:15.024Z</time></trkpt><trkpt lat="45.5771713" lon="10.7467762"><ele>235.0</ele><time>2026-03-28T11:42:16.021Z</time></trkpt><trkpt lat="45.5772615" lon="10.7467367"><ele>235.0</ele><time>2026-03-28T11:42:17.019Z</time></trkpt><trkpt lat="45.577341" lon="10.7466915"><ele>234.83333333333331</ele><time>2026-03-28T11:42:18.021Z</time></trkpt><trkpt lat="45.57741" lon="10.7466367"><ele>234.66666666666666</ele><time>2026-03-28T11:42:19.021Z</time></trkpt><trkpt lat="45.577474" lon="10.7465725"><ele>234.5</ele><time>2026-03-28T11:42:20.022Z</time></trkpt><trkpt lat="45.5775342" lon="10.7465047"><ele>234.33333333333331</ele><time>2026-03-28T11:42:21.022Z</time></trkpt><trkpt lat="45.5776033" lon="10.7464363"><ele>234.16666666666666</ele><time>2026-03-28T11:42:22.02Z</time></trkpt><trkpt lat="45.5776782" lon="10.746365"><ele>234.0</ele><time>2026-03-28T11:42:23.023Z</time></trkpt><trkpt lat="45.5777478" lon="10.7462952"><ele>234.0</ele><time>2026-03-28T11:42:24.022Z</time></trkpt><trkpt lat="45.5778182" lon="10.7462265"><ele>234.0</ele><time>2026-03-28T11:42:25.022Z</time></trkpt><trkpt lat="45.5778892" lon="10.7461597"><ele>234.0</ele><time>2026-03-28T11:42:26.023Z</time></trkpt><trkpt lat="45.5779595" lon="10.746094"><ele>234.0</ele><time>2026-03-28T11:42:27.02Z</time></trkpt><trkpt lat="45.578031" lon="10.7460312"><ele>234.0</ele><time>2026-03-28T11:42:28.02Z</time></trkpt><trkpt lat="45.578104" lon="10.74597"><ele>234.0</ele><time>2026-03-28T11:42:29.02Z</time></trkpt><trkpt lat="45.5781775" lon="10.7459093"><ele>232.83333333333334</ele><time>2026-03-28T11:42:30.022Z</time></trkpt><trkpt lat="45.5782517" lon="10.7458488"><ele>231.66666666666669</ele><time>2026-03-28T11:42:31.025Z</time></trkpt><trkpt lat="45.5783257" lon="10.7457903"><ele>230.5</ele><time>2026-03-28T11:42:32.023Z</time></trkpt><trkpt lat="45.5783965" lon="10.7457295"><ele>229.33333333333334</ele><time>2026-03-28T11:42:33.022Z</time></trkpt><trkpt lat="45.5784668" lon="10.7456662"><ele>228.16666666666669</ele><time>2026-03-28T11:42:34.021Z</time></trkpt><trkpt lat="45.5785372" lon="10.7456067"><ele>227.0</ele><time>2026-03-28T11:42:35.022Z</time></trkpt><trkpt lat="45.5786128" lon="10.7455382"><ele>226.6</ele><time>2026-03-28T11:42:36.024Z</time></trkpt><trkpt lat="45.5786907" lon="10.7454602"><ele>226.2</ele><time>2026-03-28T11:42:37.022Z</time></trkpt><trkpt lat="45.578763" lon="10.7453777"><ele>225.8</ele><time>2026-03-28T11:42:38.023Z</time></trkpt><trkpt lat="45.5788297" lon="10.7452935"><ele>225.4</ele><time>2026-03-28T11:42:39.024Z</time></trkpt><trkpt lat="45.5788937" lon="10.745205"><ele>225.0</ele><time>2026-03-28T11:42:40.021Z</time></trkpt><trkpt lat="45.5789578" lon="10.7451102"><ele>224.16666666666666</ele><time>2026-03-28T11:42:41.022Z</time></trkpt><trkpt lat="45.5790185" lon="10.7450122"><ele>223.33333333333331</ele><time>2026-03-28T11:42:42.023Z</time></trkpt><trkpt lat="45.5790765" lon="10.7449187"><ele>222.5</ele><time>2026-03-28T11:42:43.024Z</time></trkpt><trkpt lat="45.5791365" lon="10.7448285"><ele>221.66666666666666</ele><time>2026-03-28T11:42:44.026Z</time></trkpt><trkpt lat="45.5791948" lon="10.7447482"><ele>220.83333333333331</ele><time>2026-03-28T11:42:45.021Z</time></trkpt><trkpt lat="45.5792522" lon="10.7446838"><ele>220.0</ele><time>2026-03-28T11:42:46.022Z</time></trkpt><trkpt lat="45.579316" lon="10.7446473"><ele>219.99999999999997</ele><time>2026-03-28T11:42:47.023Z</time></trkpt><trkpt lat="45.5793867" lon="10.7446465"><ele>220.0</ele><time>2026-03-28T11:42:48.024Z</time></trkpt><trkpt lat="45.5794652" lon="10.744683"><ele>220.0</ele><time>2026-03-28T11:42:49.024Z</time></trkpt><trkpt lat="45.5795482" lon="10.7447397"><ele>220.0</ele><time>2026-03-28T11:42:50.022Z</time></trkpt><trkpt lat="45.5796343" lon="10.7448015"><ele>219.99999999999997</ele><time>2026-03-28T11:42:51.022Z</time></trkpt><trkpt lat="45.5797205" lon="10.7448642"><ele>220.0</ele><time>2026-03-28T11:42:52.022Z</time></trkpt><trkpt lat="45.5798038" lon="10.7449287"><ele>219.49999999999997</ele><time>2026-03-28T11:42:53.022Z</time></trkpt><trkpt lat="45.5798775" lon="10.7449962"><ele>219.0</ele><time>2026-03-28T11:42:54.023Z</time></trkpt><trkpt lat="45.5799407" lon="10.74506"><ele>218.5</ele><time>2026-03-28T11:42:55.024Z</time></trkpt><trkpt lat="45.5800042" lon="10.745128"><ele>218.0</ele><time>2026-03-28T11:42:56.024Z</time></trkpt><trkpt lat="45.5800783" lon="10.7452003"><ele>217.49999999999997</ele><time>2026-03-28T11:42:57.024Z</time></trkpt><trkpt lat="45.5801618" lon="10.7452693"><ele>217.0</ele><time>2026-03-28T11:42:58.024Z</time></trkpt><trkpt lat="45.5802538" lon="10.745329"><ele>221.0</ele><time>2026-03-28T11:42:59.023Z</time></trkpt><trkpt lat="45.5803565" lon="10.7453782"><ele>225.0</ele><time>2026-03-28T11:43:00.024Z</time></trkpt><trkpt lat="45.5804675" lon="10.7454132"><ele>229.0</ele><time>2026-03-28T11:43:01.024Z</time></trkpt><trkpt lat="45.580587" lon="10.7454387"><ele>233.0</ele><time>2026-03-28T11:43:02.022Z</time></trkpt><trkpt lat="45.5807078" lon="10.7454668"><ele>233.0</ele><time>2026-03-28T11:43:03.021Z</time></trkpt><trkpt lat="45.5808155" lon="10.7455028"><ele>233.0</ele><time>2026-03-28T11:43:04.021Z</time></trkpt><trkpt lat="45.5809127" lon="10.7455383"><ele>233.0</ele><time>2026-03-28T11:43:05.021Z</time></trkpt><trkpt lat="45.5810003" lon="10.7455713"><ele>233.0</ele><time>2026-03-28T11:43:06.022Z</time></trkpt><trkpt lat="45.5810788" lon="10.7455963"><ele>233.0</ele><time>2026-03-28T11:43:07.022Z</time></trkpt><trkpt lat="45.5811513" lon="10.7456122"><ele>231.50000000000003</ele><time>2026-03-28T11:43:08.022Z</time></trkpt><trkpt lat="45.5812158" lon="10.7456283"><ele>230.0</ele><time>2026-03-28T11:43:09.022Z</time></trkpt><trkpt lat="45.5813175" lon="10.745682"><ele>228.5</ele><time>2026-03-28T11:43:11.021Z</time></trkpt><trkpt lat="45.5813853" lon="10.7456605"><ele>227.0</ele><time>2026-03-28T11:43:14.023Z</time></trkpt><trkpt lat="45.5813232" lon="10.7456028"><ele>225.50000000000003</ele><time>2026-03-28T11:43:17.02Z</time></trkpt><trkpt lat="45.5813127" lon="10.7454562"><ele>224.0</ele><time>2026-03-28T11:43:20.024Z</time></trkpt><trkpt lat="45.5813397" lon="10.7453718"><ele>224.00000000000003</ele><time>2026-03-28T11:43:21.023Z</time></trkpt><trkpt lat="45.581368" lon="10.7452748"><ele>224.0</ele><time>2026-03-28T11:43:22.022Z</time></trkpt><trkpt lat="45.581394" lon="10.7451708"><ele>224.0</ele><time>2026-03-28T11:43:23.025Z</time></trkpt><trkpt lat="45.5814192" lon="10.7450648"><ele>224.0</ele><time>2026-03-28T11:43:24.024Z</time></trkpt><trkpt lat="45.5814408" lon="10.7449752"><ele>224.00000000000003</ele><time>2026-03-28T11:43:25.024Z</time></trkpt><trkpt lat="45.5814833" lon="10.7448595"><ele>224.0</ele><time>2026-03-28T11:43:27.026Z</time></trkpt><trkpt lat="45.5814963" lon="10.7447588"><ele>224.00000000000003</ele><time>2026-03-28T11:43:30.024Z</time></trkpt><trkpt lat="45.5814352" lon="10.7448213"><ele>224.0</ele><time>2026-03-28T11:43:33.024Z</time></trkpt><trkpt lat="45.5814157" lon="10.7449527"><ele>224.0</ele><time>2026-03-28T11:43:35.023Z</time></trkpt><trkpt lat="45.5813822" lon="10.745122"><ele>224.0</ele><time>2026-03-28T11:43:37.024Z</time></trkpt><trkpt lat="45.5813623" lon="10.7452162"><ele>224.00000000000003</ele><time>2026-03-28T11:43:38.023Z</time></trkpt><trkpt lat="45.5813442" lon="10.7453062"><ele>224.0</ele><time>2026-03-28T11:43:39.022Z</time></trkpt><trkpt lat="45.5813128" lon="10.7454355"><ele>224.0</ele><time>2026-03-28T11:43:41.02Z</time></trkpt><trkpt lat="45.5812953" lon="10.7455322"><ele>224.0</ele><time>2026-03-28T11:43:43.022Z</time></trkpt><trkpt lat="45.5813493" lon="10.745605"><ele>224.0</ele><time>2026-03-28T11:43:46.022Z</time></trkpt></trkseg></trk></gpx>